Observation data for Guadalupe Mtns Park on 09/10/2017      Previous  Date       Current Mesonet Observations  Soil Data  Daily Summary Page  Observations in Plain Language
KGU1 100500Z 03005KT 19/09 A3032 RMK A01 T01850092  RH  056%=      5-min Rain = 0
KGU1 100501Z 03007KT 19/09 A3032 RMK A01 T01850092  RH  056%=      5-min Rain = 0
KGU1 100502Z 02008KT 19/09 A3032 RMK A01 T01850092  RH  055%=      5-min Rain = 0
KGU1 100503Z 02006KT 19/09 A3032 RMK A01 T01850092  RH  055%=      5-min Rain = 0
KGU1 100504Z 02004KT 19/09 A3032 RMK A01 T01850092  RH  055%=      5-min Rain = 0
KGU1 100505Z 02003KT 19/09 A3032 RMK A01 T01850093  RH  056%=      5-min Rain = 0
KGU1 100506Z 02004KT 18/09 A3032 RMK A01 T01840093  RH  056%=      5-min Rain = 0
KGU1 100507Z 03008KT 18/09 A3032 RMK A01 T01840093  RH  056%=      5-min Rain = 0
KGU1 100508Z 04007KT 18/09 A3032 RMK A01 T01840093  RH  056%=      5-min Rain = 0
KGU1 100509Z 02006KT 19/09 A3032 RMK A01 T01850093  RH  056%=      5-min Rain = 0
KGU1 100510Z 01005KT 19/09 A3032 RMK A01 T01860093  RH  056%=      5-min Rain = 0
KGU1 100511Z 00004KT 19/09 A3032 RMK A01 T01860093  RH  056%=      5-min Rain = 0
KGU1 100512Z 01005KT 19/09 A3032 RMK A01 T01860093  RH  056%=      5-min Rain = 0
KGU1 100513Z 02006KT 19/09 A3033 RMK A01 T01850094  RH  056%=      5-min Rain = 0
KGU1 100514Z 02007KT 19/09 A3033 RMK A01 T01850094  RH  056%=      5-min Rain = 0
KGU1 100515Z 02007KT 18/09 A3033 RMK A01 T01840094  RH  056%=      5-min Rain = 0
KGU1 100516Z 02008KT 18/09 A3033 RMK A01 T01840094  RH  057%=      5-min Rain = 0
KGU1 100517Z 00005KT 19/09 A3033 RMK A01 T01850094  RH  056%=      5-min Rain = 0
KGU1 100518Z 02006KT 19/09 A3033 RMK A01 T01850094  RH  056%=      5-min Rain = 0
KGU1 100519Z 02005KT 19/09 A3033 RMK A01 T01850094  RH  056%=      5-min Rain = 0
KGU1 100520Z 03006KT 18/09 A3033 RMK A01 T01840094  RH  057%=      5-min Rain = 0
KGU1 100521Z 03005KT 18/09 A3033 RMK A01 T01840094  RH  056%=      5-min Rain = 0
KGU1 100522Z 03005KT 18/09 A3033 RMK A01 T01840094  RH  056%=      5-min Rain = 0
KGU1 100523Z 05005KT 18/09 A3033 RMK A01 T01840094  RH  057%=      5-min Rain = 0
KGU1 100524Z 03005KT 18/10 A3033 RMK A01 T01840095  RH  057%=      5-min Rain = 0
KGU1 100525Z 02004KT 18/10 A3033 RMK A01 T01840095  RH  057%=      5-min Rain = 0
KGU1 100526Z 02004KT 18/10 A3033 RMK A01 T01840095  RH  057%=      5-min Rain = 0
KGU1 100527Z 02003KT 18/10 A3033 RMK A01 T01830095  RH  057%=      5-min Rain = 0
KGU1 100528Z 04004KT 18/10 A3033 RMK A01 T01830095  RH  058%=      5-min Rain = 0
KGU1 100529Z 04004KT 18/10 A3033 RMK A01 T01820096  RH  058%=      5-min Rain = 0
KGU1 100530Z 04004KT 18/10 A3033 RMK A01 T01820096  RH  058%=      5-min Rain = 0
KGU1 100531Z 05004KT 18/10 A3033 RMK A01 T01810096  RH  058%=      5-min Rain = 0
KGU1 100532Z 05005KT 18/10 A3033 RMK A01 T01810095  RH  058%=      5-min Rain = 0
KGU1 100533Z 04004KT 18/10 A3033 RMK A01 T01820095  RH  058%=      5-min Rain = 0
KGU1 100534Z 04004KT 18/10 A3033 RMK A01 T01830095  RH  058%=      5-min Rain = 0
KGU1 100535Z 04004KT 18/10 A3033 RMK A01 T01820095  RH  058%=      5-min Rain = 0
KGU1 100536Z 05005KT 18/10 A3033 RMK A01 T01820096  RH  058%=      5-min Rain = 0
KGU1 100537Z 05004KT 18/10 A3033 RMK A01 T01820096  RH  058%=      5-min Rain = 0
KGU1 100538Z 05004KT 18/10 A3033 RMK A01 T01810096  RH  058%=      5-min Rain = 0
KGU1 100539Z 04005KT 18/10 A3033 RMK A01 T01810096  RH  059%=      5-min Rain = 0
KGU1 100540Z 05006KT 18/10 A3033 RMK A01 T01800096  RH  059%=      5-min Rain = 0
KGU1 100541Z 05005KT 18/10 A3033 RMK A01 T01810096  RH  059%=      5-min Rain = 0
KGU1 100542Z 06005KT 18/10 A3033 RMK A01 T01800096  RH  059%=      5-min Rain = 0
KGU1 100543Z 07004KT 18/10 A3033 RMK A01 T01800096  RH  059%=      5-min Rain = 0
KGU1 100544Z 04002KT 18/10 A3033 RMK A01 T01800095  RH  059%=      5-min Rain = 0
KGU1 100545Z 04005KT 18/10 A3033 RMK A01 T01800096  RH  059%=      5-min Rain = 0
KGU1 100546Z 02005KT 18/10 A3033 RMK A01 T01800096  RH  059%=      5-min Rain = 0
KGU1 100547Z 03005KT 18/10 A3033 RMK A01 T01800096  RH  059%=      5-min Rain = 0
KGU1 100548Z 04004KT 18/10 A3033 RMK A01 T01800096  RH  059%=      5-min Rain = 0
KGU1 100549Z 04005KT 18/10 A3033 RMK A01 T01790096  RH  059%=      5-min Rain = 0
KGU1 100550Z 03003KT 18/10 A3033 RMK A01 T01790096  RH  059%=      5-min Rain = 0
KGU1 100551Z 05004KT 18/10 A3033 RMK A01 T01780096  RH  060%=      5-min Rain = 0
KGU1 100552Z 04004KT 18/10 A3033 RMK A01 T01780096  RH  060%=      5-min Rain = 0
KGU1 100553Z 04003KT 18/10 A3033 RMK A01 T01770097  RH  060%=      5-min Rain = 0
KGU1 100554Z 03006KT 18/10 A3033 RMK A01 T01760097  RH  061%=      5-min Rain = 0
KGU1 100555Z 01005KT 18/10 A3033 RMK A01 T01770097  RH  061%=      5-min Rain = 0
KGU1 100556Z 02005KT 18/10 A3033 RMK A01 T01770097  RH  061%=      5-min Rain = 0
KGU1 100557Z 04005KT 18/10 A3033 RMK A01 T01760097  RH  061%=      5-min Rain = 0
KGU1 100558Z 03004KT 18/10 A3033 RMK A01 T01750098  RH  061%=      5-min Rain = 0
KGU1 100559Z 03004KT 18/10 A3033 RMK A01 T01750098  RH  062%=      5-min Rain = 0
KGU1 100600Z 02005KT 17/10 A3033 RMK A01 T01740098  RH  062%=      5-min Rain = 0
KGU1 100601Z 02006KT 18/10 A3033 RMK A01 T01750099  RH  062%=      5-min Rain = 0
KGU1 100602Z 03006KT 18/10 A3033 RMK A01 T01750098  RH  062%=      5-min Rain = 0
KGU1 100603Z 03007KT 18/10 A3033 RMK A01 T01750098  RH  062%=      5-min Rain = 0
KGU1 100604Z 02007KT 18/10 A3033 RMK A01 T01760098  RH  061%=      5-min Rain = 0
KGU1 100605Z 01006KT 18/10 A3033 RMK A01 T01760098  RH  061%=      5-min Rain = 0
KGU1 100606Z 01006KT 18/10 A3033 RMK A01 T01750098  RH  062%=      5-min Rain = 0
KGU1 100607Z 01004KT 18/10 A3033 RMK A01 T01760099  RH  061%=      5-min Rain = 0
KGU1 100608Z 01004KT 18/10 A3032 RMK A01 T01760099  RH  061%=      5-min Rain = 0
KGU1 100609Z 05004KT 18/10 A3032 RMK A01 T01760099  RH  061%=      5-min Rain = 0
KGU1 100610Z 03005KT 18/10 A3032 RMK A01 T01760099  RH  062%=      5-min Rain = 0
KGU1 100611Z 02004KT 18/10 A3032 RMK A01 T01760099  RH  062%=      5-min Rain = 0
KGU1 100612Z 02004KT 18/10 A3032 RMK A01 T01760099  RH  062%=      5-min Rain = 0
KGU1 100613Z 01004KT 18/10 A3032 RMK A01 T01750099  RH  062%=      5-min Rain = 0
KGU1 100614Z 02005KT 18/10 A3032 RMK A01 T01750099  RH  062%=      5-min Rain = 0
KGU1 100615Z 02006KT 18/10 A3032 RMK A01 T01750100  RH  062%=      5-min Rain = 0
KGU1 100616Z 01005KT 18/10 A3032 RMK A01 T01750100  RH  062%=      5-min Rain = 0
KGU1 100617Z 03007KT 18/10 A3032 RMK A01 T01750100  RH  062%=      5-min Rain = 0
KGU1 100618Z 03007KT 18/10 A3032 RMK A01 T01760100  RH  062%=      5-min Rain = 0
KGU1 100619Z 01006KT 18/10 A3032 RMK A01 T01760100  RH  062%=      5-min Rain = 0
KGU1 100620Z 04006KT 18/10 A3032 RMK A01 T01760100  RH  062%=      5-min Rain = 0
KGU1 100621Z 03005KT 18/10 A3032 RMK A01 T01780100  RH  061%=      5-min Rain = 0
KGU1 100622Z 01005KT 18/10 A3032 RMK A01 T01780100  RH  061%=      5-min Rain = 0
KGU1 100623Z 02005KT 18/10 A3032 RMK A01 T01780100  RH  061%=      5-min Rain = 0
KGU1 100624Z 02007KT 18/10 A3032 RMK A01 T01780101  RH  062%=      5-min Rain = 0
KGU1 100625Z 02007KT 18/10 A3032 RMK A01 T01780101  RH  062%=      5-min Rain = 0
KGU1 100626Z 02007KT 18/10 A3032 RMK A01 T01770101  RH  062%=      5-min Rain = 0
KGU1 100627Z 02006KT 18/10 A3032 RMK A01 T01770101  RH  062%=      5-min Rain = 0
KGU1 100628Z 03007KT 18/10 A3032 RMK A01 T01770101  RH  062%=      5-min Rain = 0
KGU1 100629Z 03006KT 18/10 A3032 RMK A01 T01760101  RH  062%=      5-min Rain = 0
KGU1 100630Z 03006KT 18/10 A3032 RMK A01 T01760101  RH  062%=      5-min Rain = 0
KGU1 100631Z 03005KT 18/10 A3032 RMK A01 T01760101  RH  063%=      5-min Rain = 0
KGU1 100632Z 04006KT 18/10 A3032 RMK A01 T01750101  RH  063%=      5-min Rain = 0
KGU1 100633Z 03005KT 18/10 A3032 RMK A01 T01750101  RH  063%=      5-min Rain = 0
KGU1 100634Z 03005KT 18/10 A3032 RMK A01 T01750101  RH  063%=      5-min Rain = 0
KGU1 100635Z 03005KT 18/10 A3032 RMK A01 T01750101  RH  063%=      5-min Rain = 0
KGU1 100636Z 02005KT 18/10 A3032 RMK A01 T01750101  RH  063%=      5-min Rain = 0
KGU1 100637Z 02006KT 18/10 A3032 RMK A01 T01750101  RH  063%=      5-min Rain = 0
KGU1 100638Z 02006KT 18/10 A3032 RMK A01 T01760101  RH  063%=      5-min Rain = 0
KGU1 100639Z 02006KT 18/10 A3032 RMK A01 T01760101  RH  063%=      5-min Rain = 0
KGU1 100640Z 04007KT 18/10 A3032 RMK A01 T01760101  RH  063%=      5-min Rain = 0
KGU1 100641Z 03007KT 18/10 A3032 RMK A01 T01760101  RH  063%=      5-min Rain = 0
KGU1 100642Z 02008KT 18/10 A3032 RMK A01 T01760101  RH  062%=      5-min Rain = 0
KGU1 100643Z 02007KT 18/10 A3032 RMK A01 T01760101  RH  062%=      5-min Rain = 0
KGU1 100644Z 01006KT 18/10 A3032 RMK A01 T01770101  RH  062%=      5-min Rain = 0
KGU1 100645Z 01006KT 18/10 A3032 RMK A01 T01770101  RH  062%=      5-min Rain = 0
KGU1 100646Z 02004KT 18/10 A3032 RMK A01 T01760101  RH  062%=      5-min Rain = 0
KGU1 100647Z 01005KT 18/10 A3032 RMK A01 T01760101  RH  063%=      5-min Rain = 0
KGU1 100648Z 03006KT 18/10 A3032 RMK A01 T01760101  RH  062%=      5-min Rain = 0
KGU1 100649Z 01005KT 18/10 A3032 RMK A01 T01760100  RH  062%=      5-min Rain = 0
KGU1 100650Z 02005KT 18/10 A3032 RMK A01 T01770100  RH  062%=      5-min Rain = 0
KGU1 100651Z 05005KT 18/10 A3032 RMK A01 T01770099  RH  061%=      5-min Rain = 0
KGU1 100652Z 06004KT 18/10 A3032 RMK A01 T01770098  RH  061%=      5-min Rain = 0
KGU1 100653Z 03004KT 18/10 A3032 RMK A01 T01770098  RH  061%=      5-min Rain = 0
KGU1 100654Z 01007KT 18/10 A3032 RMK A01 T01770098  RH  061%=      5-min Rain = 0
KGU1 100655Z 01006KT 18/10 A3032 RMK A01 T01780099  RH  061%=      5-min Rain = 0
KGU1 100656Z 01006KT 18/10 A3032 RMK A01 T01770100  RH  061%=      5-min Rain = 0
KGU1 100657Z 02006KT 18/10 A3032 RMK A01 T01770100  RH  061%=      5-min Rain = 0
KGU1 100658Z 04004KT 18/10 A3032 RMK A01 T01770100  RH  061%=      5-min Rain = 0
KGU1 100659Z 04006KT 18/10 A3032 RMK A01 T01760098  RH  061%=      5-min Rain = 0
KGU1 100700Z 04005KT 18/10 A3032 RMK A01 T01760097  RH  061%=      5-min Rain = 0
KGU1 100701Z 03004KT 18/10 A3032 RMK A01 T01770098  RH  061%=      5-min Rain = 0
KGU1 100702Z 02004KT 18/10 A3032 RMK A01 T01760098  RH  061%=      5-min Rain = 0
KGU1 100703Z 03004KT 18/10 A3032 RMK A01 T01760098  RH  061%=      5-min Rain = 0
KGU1 100704Z 04005KT 18/10 A3032 RMK A01 T01750097  RH  061%=      5-min Rain = 0
KGU1 100705Z 04005KT 18/10 A3032 RMK A01 T01750096  RH  061%=      5-min Rain = 0
KGU1 100706Z 04006KT 18/10 A3032 RMK A01 T01750096  RH  061%=      5-min Rain = 0
KGU1 100707Z 04005KT 18/10 A3032 RMK A01 T01750097  RH  061%=      5-min Rain = 0
KGU1 100708Z 05005KT 18/09 A3032 RMK A01 T01750094  RH  060%=      5-min Rain = 0
KGU1 100709Z 04007KT 18/09 A3032 RMK A01 T01750093  RH  060%=      5-min Rain = 0
KGU1 100710Z 02004KT 18/09 A3032 RMK A01 T01760094  RH  060%=      5-min Rain = 0
KGU1 100711Z 02004KT 18/09 A3032 RMK A01 T01760094  RH  060%=      5-min Rain = 0
KGU1 100712Z 01004KT 18/10 A3032 RMK A01 T01750095  RH  060%=      5-min Rain = 0
KGU1 100713Z 03005KT 18/10 A3032 RMK A01 T01750095  RH  060%=      5-min Rain = 0
KGU1 100714Z 03004KT 18/10 A3032 RMK A01 T01750095  RH  061%=      5-min Rain = 0
KGU1 100715Z 05004KT 17/09 A3032 RMK A01 T01740094  RH  060%=      5-min Rain = 0
KGU1 100716Z 04004KT 17/09 A3032 RMK A01 T01740092  RH  059%=      5-min Rain = 0
KGU1 100717Z 03005KT 17/09 A3032 RMK A01 T01740094  RH  060%=      5-min Rain = 0
KGU1 100718Z 02006KT 17/09 A3032 RMK A01 T01740094  RH  060%=      5-min Rain = 0
KGU1 100719Z 02006KT 17/09 A3032 RMK A01 T01740094  RH  060%=      5-min Rain = 0
KGU1 100720Z 02005KT 17/09 A3032 RMK A01 T01740093  RH  060%=      5-min Rain = 0
KGU1 100721Z 02005KT 17/09 A3032 RMK A01 T01740093  RH  060%=      5-min Rain = 0
KGU1 100722Z 02005KT 17/09 A3032 RMK A01 T01740092  RH  060%=      5-min Rain = 0
KGU1 100723Z 03004KT 17/09 A3032 RMK A01 T01740092  RH  060%=      5-min Rain = 0
KGU1 100724Z 05005KT 17/09 A3032 RMK A01 T01730091  RH  059%=      5-min Rain = 0
KGU1 100725Z 04005KT 17/09 A3032 RMK A01 T01730091  RH  059%=      5-min Rain = 0
KGU1 100726Z 03005KT 17/09 A3032 RMK A01 T01730091  RH  059%=      5-min Rain = 0
KGU1 100727Z 03004KT 17/09 A3032 RMK A01 T01730091  RH  059%=      5-min Rain = 0
KGU1 100728Z 03006KT 17/09 A3032 RMK A01 T01730091  RH  060%=      5-min Rain = 0
KGU1 100729Z 01006KT 17/09 A3032 RMK A01 T01720091  RH  060%=      5-min Rain = 0
KGU1 100730Z 02006KT 17/09 A3031 RMK A01 T01730089  RH  059%=      5-min Rain = 0
KGU1 100731Z 02006KT 17/09 A3032 RMK A01 T01730091  RH  059%=      5-min Rain = 0
KGU1 100732Z 03005KT 17/09 A3032 RMK A01 T01730091  RH  059%=      5-min Rain = 0
KGU1 100733Z 02004KT 17/09 A3032 RMK A01 T01730091  RH  060%=      5-min Rain = 0
KGU1 100734Z 01007KT 17/09 A3031 RMK A01 T01720090  RH  059%=      5-min Rain = 0
KGU1 100735Z 01006KT 17/09 A3031 RMK A01 T01730090  RH  059%=      5-min Rain = 0
KGU1 100736Z 03004KT 17/09 A3031 RMK A01 T01730090  RH  059%=      5-min Rain = 0
KGU1 100737Z 03005KT 17/09 A3031 RMK A01 T01730090  RH  059%=      5-min Rain = 0
KGU1 100738Z 04006KT 17/09 A3031 RMK A01 T01720088  RH  059%=      5-min Rain = 0
KGU1 100739Z 03005KT 17/09 A3031 RMK A01 T01730088  RH  058%=      5-min Rain = 0
KGU1 100740Z 02005KT 17/09 A3031 RMK A01 T01730087  RH  058%=      5-min Rain = 0
KGU1 100741Z 02003KT 17/09 A3031 RMK A01 T01730087  RH  058%=      5-min Rain = 0
KGU1 100742Z 03003KT 17/09 A3031 RMK A01 T01730087  RH  058%=      5-min Rain = 0
KGU1 100743Z 02004KT 17/09 A3031 RMK A01 T01720087  RH  058%=      5-min Rain = 0
KGU1 100744Z 01005KT 17/09 A3031 RMK A01 T01720087  RH  058%=      5-min Rain = 0
KGU1 100745Z 03005KT 17/09 A3031 RMK A01 T01720086  RH  058%=      5-min Rain = 0
KGU1 100746Z 04007KT 17/09 A3031 RMK A01 T01730085  RH  057%=      5-min Rain = 0
KGU1 100747Z 02006KT 17/09 A3031 RMK A01 T01740086  RH  057%=      5-min Rain = 0
KGU1 100748Z 01005KT 17/09 A3031 RMK A01 T01740087  RH  057%=      5-min Rain = 0
KGU1 100749Z 02005KT 17/09 A3031 RMK A01 T01730087  RH  058%=      5-min Rain = 0
KGU1 100750Z 03005KT 17/09 A3031 RMK A01 T01730087  RH  058%=      5-min Rain = 0
KGU1 100751Z 03006KT 17/09 A3031 RMK A01 T01720087  RH  058%=      5-min Rain = 0
KGU1 100752Z 03004KT 17/09 A3031 RMK A01 T01710087  RH  059%=      5-min Rain = 0
KGU1 100753Z 03005KT 17/09 A3031 RMK A01 T01700087  RH  059%=      5-min Rain = 0
KGU1 100754Z 01006KT 17/09 A3031 RMK A01 T01700086  RH  059%=      5-min Rain = 0
KGU1 100755Z 01005KT 17/09 A3031 RMK A01 T01710086  RH  058%=      5-min Rain = 0
KGU1 100756Z 01005KT 17/09 A3031 RMK A01 T01720086  RH  058%=      5-min Rain = 0
KGU1 100757Z 01005KT 17/09 A3031 RMK A01 T01720086  RH  057%=      5-min Rain = 0
KGU1 100758Z 01005KT 17/09 A3031 RMK A01 T01720086  RH  058%=      5-min Rain = 0
KGU1 100759Z 03005KT 17/09 A3031 RMK A01 T01710086  RH  058%=      5-min Rain = 0
KGU1 100800Z 03006KT 17/09 A3031 RMK A01 T01710085  RH  058%=      5-min Rain = 0
KGU1 100801Z 03004KT 17/09 A3031 RMK A01 T01700085  RH  058%=      5-min Rain = 0
KGU1 100802Z 04004KT 17/09 A3031 RMK A01 T01700086  RH  058%=      5-min Rain = 0
KGU1 100803Z 03005KT 17/09 A3031 RMK A01 T01690086  RH  059%=      5-min Rain = 0
KGU1 100804Z 03007KT 17/09 A3031 RMK A01 T01690085  RH  059%=      5-min Rain = 0
KGU1 100805Z 02007KT 17/09 A3031 RMK A01 T01700085  RH  058%=      5-min Rain = 0
KGU1 100806Z 01007KT 17/09 A3031 RMK A01 T01700085  RH  058%=      5-min Rain = 0
KGU1 100807Z 01007KT 17/09 A3031 RMK A01 T01700085  RH  058%=      5-min Rain = 0
KGU1 100808Z 01007KT 17/09 A3031 RMK A01 T01700085  RH  058%=      5-min Rain = 0
KGU1 100809Z 02008KT 17/09 A3031 RMK A01 T01700086  RH  058%=      5-min Rain = 0
KGU1 100810Z 02007KT 17/09 A3031 RMK A01 T01720086  RH  058%=      5-min Rain = 0
KGU1 100811Z 01005KT 17/09 A3031 RMK A01 T01740085  RH  057%=      5-min Rain = 0
KGU1 100812Z 02005KT 18/08 A3031 RMK A01 T01750084  RH  056%=      5-min Rain = 0
KGU1 100813Z 03006KT 18/09 A3031 RMK A01 T01750085  RH  056%=      5-min Rain = 0
KGU1 100814Z 02008KT 17/09 A3031 RMK A01 T01740085  RH  057%=      5-min Rain = 0
KGU1 100815Z 02008KT 17/09 A3031 RMK A01 T01740085  RH  057%=      5-min Rain = 0
KGU1 100816Z 01008KT 17/08 A3031 RMK A01 T01740084  RH  056%=      5-min Rain = 0
KGU1 100817Z 01007KT 17/09 A3031 RMK A01 T01730085  RH  057%=      5-min Rain = 0
KGU1 100818Z 01006KT 17/09 A3031 RMK A01 T01730085  RH  057%=      5-min Rain = 0
KGU1 100819Z 02006KT 17/08 A3031 RMK A01 T01730084  RH  057%=      5-min Rain = 0
KGU1 100820Z 03006KT 17/09 A3031 RMK A01 T01730085  RH  057%=      5-min Rain = 0
KGU1 100821Z 02004KT 17/09 A3031 RMK A01 T01730085  RH  057%=      5-min Rain = 0
KGU1 100822Z 01004KT 17/09 A3031 RMK A01 T01730085  RH  057%=      5-min Rain = 0
KGU1 100823Z 00005KT 17/09 A3031 RMK A01 T01720085  RH  057%=      5-min Rain = 0
KGU1 100824Z 02007KT 17/09 A3031 RMK A01 T01720085  RH  058%=      5-min Rain = 0
KGU1 100825Z 03006KT 17/09 A3031 RMK A01 T01720087  RH  058%=      5-min Rain = 0
KGU1 100826Z 03004KT 17/09 A3031 RMK A01 T01730086  RH  057%=      5-min Rain = 0
KGU1 100827Z 04007KT 17/09 A3031 RMK A01 T01740087  RH  058%=      5-min Rain = 0
KGU1 100828Z 04006KT 17/09 A3031 RMK A01 T01740087  RH  058%=      5-min Rain = 0
KGU1 100829Z 04004KT 17/09 A3031 RMK A01 T01740086  RH  057%=      5-min Rain = 0
KGU1 100830Z 03005KT 17/09 A3031 RMK A01 T01740086  RH  057%=      5-min Rain = 0
KGU1 100831Z 03004KT 17/09 A3031 RMK A01 T01740086  RH  057%=      5-min Rain = 0
KGU1 100832Z 05005KT 17/09 A3031 RMK A01 T01730087  RH  058%=      5-min Rain = 0
KGU1 100833Z 04004KT 17/09 A3031 RMK A01 T01730087  RH  058%=      5-min Rain = 0
KGU1 100834Z 04004KT 17/09 A3031 RMK A01 T01720087  RH  058%=      5-min Rain = 0
KGU1 100835Z 03005KT 17/09 A3031 RMK A01 T01710087  RH  059%=      5-min Rain = 0
KGU1 100836Z 03004KT 17/09 A3031 RMK A01 T01700087  RH  059%=      5-min Rain = 0
KGU1 100837Z 02003KT 17/09 A3031 RMK A01 T01690087  RH  059%=      5-min Rain = 0
KGU1 100838Z 04004KT 17/09 A3031 RMK A01 T01690087  RH  059%=      5-min Rain = 0
KGU1 100839Z 02005KT 17/09 A3031 RMK A01 T01680087  RH  060%=      5-min Rain = 0
KGU1 100840Z 03005KT 17/09 A3031 RMK A01 T01680087  RH  060%=      5-min Rain = 0
KGU1 100841Z 01004KT 17/09 A3031 RMK A01 T01680087  RH  060%=      5-min Rain = 0
KGU1 100842Z 01006KT 17/09 A3031 RMK A01 T01680089  RH  060%=      5-min Rain = 0
KGU1 100843Z 01006KT 17/09 A3031 RMK A01 T01680086  RH  059%=      5-min Rain = 0
KGU1 100844Z 02004KT 17/09 A3031 RMK A01 T01690086  RH  059%=      5-min Rain = 0
KGU1 100845Z 04003KT 17/09 A3031 RMK A01 T01680087  RH  060%=      5-min Rain = 0
KGU1 100846Z 06002KT 17/09 A3031 RMK A01 T01680087  RH  060%=      5-min Rain = 0
KGU1 100847Z 05004KT 17/09 A3031 RMK A01 T01680088  RH  060%=      5-min Rain = 0
KGU1 100848Z 02004KT 17/09 A3031 RMK A01 T01680089  RH  060%=      5-min Rain = 0
KGU1 100849Z 01006KT 17/09 A3031 RMK A01 T01680089  RH  061%=      5-min Rain = 0
KGU1 100850Z 00006KT 17/09 A3031 RMK A01 T01680089  RH  061%=      5-min Rain = 0
KGU1 100851Z 02006KT 17/09 A3031 RMK A01 T01670090  RH  061%=      5-min Rain = 0
KGU1 100852Z 03005KT 17/09 A3031 RMK A01 T01660091  RH  062%=      5-min Rain = 0
KGU1 100853Z 03005KT 17/09 A3031 RMK A01 T01660092  RH  062%=      5-min Rain = 0
KGU1 100854Z 01006KT 17/09 A3031 RMK A01 T01660091  RH  062%=      5-min Rain = 0
KGU1 100855Z 02006KT 17/09 A3031 RMK A01 T01660092  RH  062%=      5-min Rain = 0
KGU1 100856Z 03004KT 17/09 A3031 RMK A01 T01660092  RH  063%=      5-min Rain = 0
KGU1 100857Z 01005KT 17/09 A3031 RMK A01 T01670092  RH  062%=      5-min Rain = 0
KGU1 100858Z 02005KT 17/09 A3031 RMK A01 T01670092  RH  062%=      5-min Rain = 0
KGU1 100859Z 01004KT 17/09 A3031 RMK A01 T01670092  RH  062%=      5-min Rain = 0
KGU1 100900Z 02004KT 17/09 A3031 RMK A01 T01660092  RH  062%=      5-min Rain = 0
KGU1 100901Z 03005KT 17/09 A3031 RMK A01 T01660090  RH  062%=      5-min Rain = 0
KGU1 100902Z 02004KT 17/09 A3031 RMK A01 T01660091  RH  062%=      5-min Rain = 0
KGU1 100903Z 01005KT 17/09 A3031 RMK A01 T01650090  RH  062%=      5-min Rain = 0
KGU1 100904Z 02004KT 17/09 A303 RMK A01 T01650090  RH  062%=      5-min Rain = 0
KGU1 100905Z 06002KT 16/09 A303 RMK A01 T01640090  RH  063%=      5-min Rain = 0
KGU1 100906Z 06002KT 16/09 A303 RMK A01 T01630090  RH  063%=      5-min Rain = 0
KGU1 100907Z 07004KT 16/09 A303 RMK A01 T01620089  RH  063%=      5-min Rain = 0
KGU1 100908Z 06004KT 16/09 A303 RMK A01 T01620088  RH  063%=      5-min Rain = 0
KGU1 100909Z 05005KT 16/09 A303 RMK A01 T01620089  RH  063%=      5-min Rain = 0
KGU1 100910Z 05005KT 16/09 A303 RMK A01 T01630089  RH  063%=      5-min Rain = 0
KGU1 100911Z 04005KT 16/09 A303 RMK A01 T01630089  RH  063%=      5-min Rain = 0
KGU1 100912Z 03006KT 16/09 A3031 RMK A01 T01630090  RH  063%=      5-min Rain = 0
KGU1 100913Z 04005KT 16/09 A3031 RMK A01 T01640091  RH  063%=      5-min Rain = 0
KGU1 100914Z 04005KT 17/09 A3031 RMK A01 T01650092  RH  063%=      5-min Rain = 0
KGU1 100915Z 04005KT 17/10 A3031 RMK A01 T01670095  RH  064%=      5-min Rain = 0
KGU1 100916Z 05005KT 17/10 A303 RMK A01 T01680096  RH  063%=      5-min Rain = 0
KGU1 100917Z 01002KT 17/10 A303 RMK A01 T01720095  RH  062%=      5-min Rain = 0
KGU1 100918Z 35002KT 17/09 A303 RMK A01 T01740094  RH  060%=      5-min Rain = 0
KGU1 100919Z 02004KT 17/09 A303 RMK A01 T01740094  RH  060%=      5-min Rain = 0
KGU1 100920Z 02003KT 17/10 A303 RMK A01 T01740095  RH  061%=      5-min Rain = 0
KGU1 100921Z 01003KT 17/09 A303 RMK A01 T01730094  RH  060%=      5-min Rain = 0
KGU1 100922Z 35002KT 17/09 A303 RMK A01 T01720092  RH  061%=      5-min Rain = 0
KGU1 100923Z 36002KT 17/09 A303 RMK A01 T01700091  RH  061%=      5-min Rain = 0
KGU1 100924Z 01003KT 17/09 A303 RMK A01 T01680092  RH  062%=      5-min Rain = 0
KGU1 100925Z 35002KT 17/09 A303 RMK A01 T01660092  RH  062%=      5-min Rain = 0
KGU1 100926Z 35004KT 17/09 A303 RMK A01 T01650092  RH  063%=      5-min Rain = 0
KGU1 100927Z 36006KT 16/09 A303 RMK A01 T01630093  RH  064%=      5-min Rain = 0
KGU1 100928Z 00006KT 16/10 A303 RMK A01 T01630095  RH  065%=      5-min Rain = 0
KGU1 100929Z 02006KT 16/09 A303 RMK A01 T01630094  RH  065%=      5-min Rain = 0
KGU1 100930Z 02007KT 16/09 A303 RMK A01 T01630094  RH  065%=      5-min Rain = 0
KGU1 100931Z 02007KT 16/09 A303 RMK A01 T01630094  RH  065%=      5-min Rain = 0
KGU1 100932Z 04005KT 16/09 A303 RMK A01 T01630094  RH  065%=      5-min Rain = 0
KGU1 100933Z 04005KT 16/10 A303 RMK A01 T01620096  RH  066%=      5-min Rain = 0
KGU1 100934Z 04006KT 16/10 A303 RMK A01 T01620098  RH  067%=      5-min Rain = 0
KGU1 100935Z 03006KT 16/10 A303 RMK A01 T01630099  RH  067%=      5-min Rain = 0
KGU1 100936Z 02005KT 16/10 A303 RMK A01 T01640097  RH  066%=      5-min Rain = 0
KGU1 100937Z 02005KT 16/10 A303 RMK A01 T01640097  RH  066%=      5-min Rain = 0
KGU1 100938Z 02004KT 16/10 A303 RMK A01 T01640098  RH  066%=      5-min Rain = 0
KGU1 100939Z 02004KT 16/10 A303 RMK A01 T01630097  RH  066%=      5-min Rain = 0
KGU1 100940Z 03004KT 16/10 A303 RMK A01 T01630098  RH  066%=      5-min Rain = 0
KGU1 100941Z 03005KT 16/10 A303 RMK A01 T01630100  RH  067%=      5-min Rain = 0
KGU1 100942Z 02004KT 16/10 A303 RMK A01 T01640100  RH  067%=      5-min Rain = 0
KGU1 100943Z 01004KT 16/10 A303 RMK A01 T01630099  RH  067%=      5-min Rain = 0
KGU1 100944Z 36005KT 16/10 A303 RMK A01 T01630099  RH  067%=      5-min Rain = 0
KGU1 100945Z 36005KT 16/10 A303 RMK A01 T01620097  RH  066%=      5-min Rain = 0
KGU1 100946Z 01007KT 16/10 A303 RMK A01 T01610096  RH  066%=      5-min Rain = 0
KGU1 100947Z 01007KT 16/10 A303 RMK A01 T01620095  RH  066%=      5-min Rain = 0
KGU1 100948Z 00006KT 16/09 A303 RMK A01 T01620094  RH  065%=      5-min Rain = 0
KGU1 100949Z 01005KT 16/09 A303 RMK A01 T01620094  RH  065%=      5-min Rain = 0
KGU1 100950Z 02004KT 16/09 A303 RMK A01 T01620094  RH  065%=      5-min Rain = 0
KGU1 100951Z 01006KT 16/09 A303 RMK A01 T01620094  RH  065%=      5-min Rain = 0
KGU1 100952Z 01007KT 16/09 A303 RMK A01 T01610094  RH  066%=      5-min Rain = 0
KGU1 100953Z 02007KT 16/09 A303 RMK A01 T01620094  RH  065%=      5-min Rain = 0
KGU1 100954Z 02006KT 16/09 A303 RMK A01 T01620094  RH  065%=      5-min Rain = 0
KGU1 100955Z 03006KT 16/09 A303 RMK A01 T01620094  RH  065%=      5-min Rain = 0
KGU1 100956Z 04005KT 16/10 A303 RMK A01 T01610095  RH  066%=      5-min Rain = 0
KGU1 100957Z 03005KT 16/10 A303 RMK A01 T01610095  RH  066%=      5-min Rain = 0
KGU1 100958Z 04005KT 16/10 A303 RMK A01 T01600096  RH  066%=      5-min Rain = 0
KGU1 100959Z 04006KT 16/10 A303 RMK A01 T01600096  RH  067%=      5-min Rain = 0
KGU1 101000Z 03006KT 16/10 A303 RMK A01 T01600097  RH  067%=      5-min Rain = 0
KGU1 101001Z 03005KT 16/10 A303 RMK A01 T01600096  RH  067%=      5-min Rain = 0
KGU1 101002Z 02005KT 16/10 A303 RMK A01 T01600096  RH  067%=      5-min Rain = 0
KGU1 101003Z 02005KT 16/10 A303 RMK A01 T01600096  RH  066%=      5-min Rain = 0
KGU1 101004Z 02004KT 16/10 A303 RMK A01 T01600096  RH  067%=      5-min Rain = 0
KGU1 101005Z 04003KT 16/10 A303 RMK A01 T01600096  RH  067%=      5-min Rain = 0
KGU1 101006Z 04003KT 16/10 A303 RMK A01 T01590096  RH  067%=      5-min Rain = 0
KGU1 101007Z 02002KT 16/10 A303 RMK A01 T01580096  RH  068%=      5-min Rain = 0
KGU1 101008Z 02004KT 16/10 A303 RMK A01 T01580096  RH  068%=      5-min Rain = 0
KGU1 101009Z 03004KT 16/10 A303 RMK A01 T01580096  RH  068%=      5-min Rain = 0
KGU1 101010Z 03006KT 16/10 A303 RMK A01 T01580096  RH  068%=      5-min Rain = 0
KGU1 101011Z 04006KT 16/10 A303 RMK A01 T01590096  RH  067%=      5-min Rain = 0
KGU1 101012Z 02006KT 16/10 A303 RMK A01 T01600096  RH  067%=      5-min Rain = 0
KGU1 101013Z 02006KT 16/10 A303 RMK A01 T01610095  RH  066%=      5-min Rain = 0
KGU1 101014Z 02007KT 16/10 A303 RMK A01 T01620095  RH  066%=      5-min Rain = 0
KGU1 101015Z 03007KT 16/10 A303 RMK A01 T01640096  RH  065%=      5-min Rain = 0
KGU1 101016Z 03007KT 16/10 A303 RMK A01 T01640097  RH  065%=      5-min Rain = 0
KGU1 101017Z 03007KT 17/10 A303 RMK A01 T01650095  RH  064%=      5-min Rain = 0
KGU1 101018Z 03005KT 17/09 A303 RMK A01 T01650094  RH  064%=      5-min Rain = 0
KGU1 101019Z 02004KT 17/09 A303 RMK A01 T01650094  RH  064%=      5-min Rain = 0
KGU1 101020Z 01004KT 16/09 A303 RMK A01 T01640094  RH  064%=      5-min Rain = 0
KGU1 101021Z 02005KT 16/09 A303 RMK A01 T01640093  RH  064%=      5-min Rain = 0
KGU1 101022Z 03005KT 16/09 A303 RMK A01 T01630094  RH  065%=      5-min Rain = 0
KGU1 101023Z 04006KT 16/10 A303 RMK A01 T01630095  RH  065%=      5-min Rain = 0
KGU1 101024Z 03005KT 16/10 A303 RMK A01 T01620095  RH  065%=      5-min Rain = 0
KGU1 101025Z 04005KT 16/10 A303 RMK A01 T01610095  RH  066%=      5-min Rain = 0
KGU1 101026Z 04005KT 16/10 A303 RMK A01 T01600095  RH  066%=      5-min Rain = 0
KGU1 101027Z 04005KT 16/10 A303 RMK A01 T01590095  RH  067%=      5-min Rain = 0
KGU1 101028Z 03004KT 16/10 A303 RMK A01 T01580095  RH  067%=      5-min Rain = 0
KGU1 101029Z 03005KT 16/10 A303 RMK A01 T01570095  RH  068%=      5-min Rain = 0
KGU1 101030Z 04005KT 16/10 A303 RMK A01 T01560095  RH  068%=      5-min Rain = 0
KGU1 101031Z 04005KT 16/10 A303 RMK A01 T01550095  RH  068%=      5-min Rain = 0
KGU1 101032Z 04005KT 16/10 A303 RMK A01 T01550095  RH  068%=      5-min Rain = 0
KGU1 101033Z 04006KT 15/10 A303 RMK A01 T01540096  RH  069%=      5-min Rain = 0
KGU1 101034Z 03006KT 15/10 A303 RMK A01 T01540096  RH  069%=      5-min Rain = 0
KGU1 101035Z 02005KT 15/10 A303 RMK A01 T01530095  RH  069%=      5-min Rain = 0
KGU1 101036Z 03005KT 15/09 A303 RMK A01 T01530094  RH  069%=      5-min Rain = 0
KGU1 101037Z 03004KT 15/09 A303 RMK A01 T01530094  RH  069%=      5-min Rain = 0
KGU1 101038Z 02005KT 15/09 A303 RMK A01 T01520094  RH  070%=      5-min Rain = 0
KGU1 101039Z 02005KT 15/10 A303 RMK A01 T01520095  RH  070%=      5-min Rain = 0
KGU1 101040Z 02004KT 15/09 A303 RMK A01 T01510094  RH  070%=      5-min Rain = 0
KGU1 101041Z 02004KT 15/09 A303 RMK A01 T01510094  RH  070%=      5-min Rain = 0
KGU1 101042Z 02004KT 15/09 A303 RMK A01 T01510094  RH  070%=      5-min Rain = 0
KGU1 101043Z 04003KT 15/09 A303 RMK A01 T01500094  RH  070%=      5-min Rain = 0
KGU1 101044Z 07003KT 15/10 A303 RMK A01 T01500096  RH  071%=      5-min Rain = 0
KGU1 101045Z 06003KT 15/10 A303 RMK A01 T01480096  RH  072%=      5-min Rain = 0
KGU1 101046Z 07003KT 15/10 A303 RMK A01 T01470097  RH  073%=      5-min Rain = 0
KGU1 101047Z 08003KT 15/10 A303 RMK A01 T01470097  RH  073%=      5-min Rain = 0
KGU1 101048Z 05003KT 15/10 A303 RMK A01 T01470097  RH  073%=      5-min Rain = 0
KGU1 101049Z 07003KT 15/10 A303 RMK A01 T01470097  RH  073%=      5-min Rain = 0
KGU1 101050Z 08004KT 15/10 A303 RMK A01 T01470097  RH  073%=      5-min Rain = 0
KGU1 101051Z 07004KT 15/10 A303 RMK A01 T01460097  RH  073%=      5-min Rain = 0
KGU1 101052Z 05003KT 15/10 A303 RMK A01 T01470096  RH  073%=      5-min Rain = 0
KGU1 101053Z 05003KT 15/10 A303 RMK A01 T01480096  RH  072%=      5-min Rain = 0
KGU1 101054Z 07004KT 15/10 A303 RMK A01 T01490096  RH  072%=      5-min Rain = 0
KGU1 101055Z 06004KT 15/10 A303 RMK A01 T01500096  RH  072%=      5-min Rain = 0
KGU1 101056Z 06004KT 15/10 A303 RMK A01 T01510097  RH  072%=      5-min Rain = 0
KGU1 101057Z 07005KT 15/10 A303 RMK A01 T01510098  RH  072%=      5-min Rain = 0
KGU1 101058Z 08004KT 15/10 A303 RMK A01 T01500098  RH  072%=      5-min Rain = 0
KGU1 101059Z 09004KT 15/10 A303 RMK A01 T01490098  RH  073%=      5-min Rain = 0
KGU1 101100Z 08006KT 15/10 A303 RMK A01 T01470097  RH  073%=      5-min Rain = 0
KGU1 101101Z 07006KT 15/10 A303 RMK A01 T01450097  RH  074%=      5-min Rain = 0
KGU1 101102Z 07005KT 14/10 A303 RMK A01 T01440097  RH  074%=      5-min Rain = 0
KGU1 101103Z 06005KT 14/10 A303 RMK A01 T01440096  RH  075%=      5-min Rain = 0
KGU1 101104Z 05005KT 14/10 A3031 RMK A01 T01420096  RH  075%=      5-min Rain = 0
KGU1 101105Z 05005KT 14/10 A3031 RMK A01 T01410096  RH  075%=      5-min Rain = 0
KGU1 101106Z 04005KT 14/10 A3031 RMK A01 T01400096  RH  076%=      5-min Rain = 0
KGU1 101107Z 03005KT 14/10 A3031 RMK A01 T01400096  RH  076%=      5-min Rain = 0
KGU1 101108Z 04006KT 14/10 A3031 RMK A01 T01390095  RH  076%=      5-min Rain = 0
KGU1 101109Z 04006KT 14/10 A3031 RMK A01 T01390095  RH  076%=      5-min Rain = 0
KGU1 101110Z 04005KT 14/10 A3031 RMK A01 T01390095  RH  076%=      5-min Rain = 0
KGU1 101111Z 03005KT 14/10 A3031 RMK A01 T01390095  RH  076%=      5-min Rain = 0
KGU1 101112Z 03006KT 14/10 A3031 RMK A01 T01390095  RH  076%=      5-min Rain = 0
KGU1 101113Z 01006KT 14/10 A3031 RMK A01 T01390096  RH  076%=      5-min Rain = 0
KGU1 101114Z 01006KT 14/10 A303 RMK A01 T01400095  RH  076%=      5-min Rain = 0
KGU1 101115Z 02005KT 14/10 A3031 RMK A01 T01390095  RH  076%=      5-min Rain = 0
KGU1 101116Z 02006KT 14/10 A3031 RMK A01 T01390095  RH  076%=      5-min Rain = 0
KGU1 101117Z 02006KT 14/10 A3031 RMK A01 T01390095  RH  076%=      5-min Rain = 0
KGU1 101118Z 02006KT 14/10 A3031 RMK A01 T01390095  RH  076%=      5-min Rain = 0
KGU1 101119Z 03005KT 14/10 A3031 RMK A01 T01390095  RH  076%=      5-min Rain = 0
KGU1 101120Z 03004KT 14/10 A3031 RMK A01 T01400095  RH  076%=      5-min Rain = 0
KGU1 101121Z 03005KT 14/10 A3031 RMK A01 T01390095  RH  076%=      5-min Rain = 0
KGU1 101122Z 02005KT 14/10 A3031 RMK A01 T01390095  RH  076%=      5-min Rain = 0
KGU1 101123Z 01004KT 14/10 A3031 RMK A01 T01380095  RH  076%=      5-min Rain = 0
KGU1 101124Z 03005KT 14/10 A3031 RMK A01 T01380095  RH  076%=      5-min Rain = 0
KGU1 101125Z 03005KT 14/10 A3031 RMK A01 T01380095  RH  077%=      5-min Rain = 0
KGU1 101126Z 03005KT 14/10 A3031 RMK A01 T01380095  RH  077%=      5-min Rain = 0
KGU1 101127Z 04005KT 14/10 A3031 RMK A01 T01380095  RH  076%=      5-min Rain = 0
KGU1 101128Z 03005KT 14/10 A3031 RMK A01 T01380095  RH  076%=      5-min Rain = 0
KGU1 101129Z 04004KT 14/10 A3031 RMK A01 T01380095  RH  077%=      5-min Rain = 0
KGU1 101130Z 04004KT 14/10 A3031 RMK A01 T01390095  RH  076%=      5-min Rain = 0
KGU1 101131Z 04004KT 14/10 A3031 RMK A01 T01390095  RH  076%=      5-min Rain = 0
KGU1 101132Z 04004KT 14/10 A3031 RMK A01 T01390095  RH  076%=      5-min Rain = 0
KGU1 101133Z 04003KT 14/10 A3031 RMK A01 T01390095  RH  076%=      5-min Rain = 0
KGU1 101134Z 03003KT 14/10 A3031 RMK A01 T01390095  RH  076%=      5-min Rain = 0
KGU1 101135Z 03004KT 14/10 A3031 RMK A01 T01400095  RH  076%=      5-min Rain = 0
KGU1 101136Z 04005KT 14/10 A3031 RMK A01 T01390095  RH  076%=      5-min Rain = 0
KGU1 101137Z 03004KT 14/10 A3031 RMK A01 T01390095  RH  076%=      5-min Rain = 0
KGU1 101138Z 03004KT 14/10 A3031 RMK A01 T01390095  RH  076%=      5-min Rain = 0
KGU1 101139Z 02004KT 14/10 A3031 RMK A01 T01390095  RH  076%=      5-min Rain = 0
KGU1 101140Z 02004KT 14/10 A3031 RMK A01 T01390095  RH  076%=      5-min Rain = 0
KGU1 101141Z 02004KT 14/10 A3031 RMK A01 T01390095  RH  076%=      5-min Rain = 0
KGU1 101142Z 01005KT 14/10 A3031 RMK A01 T01380095  RH  076%=      5-min Rain = 0
KGU1 101143Z 01005KT 14/10 A3031 RMK A01 T01370095  RH  077%=      5-min Rain = 0
KGU1 101144Z 01005KT 14/10 A3031 RMK A01 T01380095  RH  077%=      5-min Rain = 0
KGU1 101145Z 01004KT 14/10 A3031 RMK A01 T01380095  RH  077%=      5-min Rain = 0
KGU1 101146Z 02004KT 14/10 A3031 RMK A01 T01380095  RH  077%=      5-min Rain = 0
KGU1 101147Z 02005KT 14/10 A3031 RMK A01 T01380095  RH  077%=      5-min Rain = 0
KGU1 101148Z 02005KT 14/10 A3031 RMK A01 T01380095  RH  077%=      5-min Rain = 0
KGU1 101149Z 02004KT 14/10 A3031 RMK A01 T01380095  RH  076%=      5-min Rain = 0
KGU1 101150Z 02005KT 14/10 A3031 RMK A01 T01380095  RH  076%=      5-min Rain = 0
KGU1 101151Z 01005KT 14/10 A3031 RMK A01 T01380095  RH  077%=      5-min Rain = 0
KGU1 101152Z 01004KT 14/10 A3031 RMK A01 T01380096  RH  077%=      5-min Rain = 0
KGU1 101153Z 02004KT 14/10 A3031 RMK A01 T01380095  RH  076%=      5-min Rain = 0
KGU1 101154Z 03003KT 14/10 A3031 RMK A01 T01380095  RH  076%=      5-min Rain = 0
KGU1 101155Z 03003KT 14/10 A3031 RMK A01 T01380095  RH  076%=      5-min Rain = 0
KGU1 101156Z 03003KT 14/09 A3031 RMK A01 T01380094  RH  076%=      5-min Rain = 0
KGU1 101157Z 04003KT 14/09 A3031 RMK A01 T01370094  RH  076%=      5-min Rain = 0
KGU1 101158Z 04003KT 14/09 A3031 RMK A01 T01370094  RH  077%=      5-min Rain = 0
KGU1 101159Z 03004KT 14/09 A3031 RMK A01 T01370094  RH  077%=      5-min Rain = 0
KGU1 101200Z 03004KT 14/09 A3031 RMK A01 T01370094  RH  077%=      5-min Rain = 0
KGU1 101201Z 03004KT 14/09 A3032 RMK A01 T01370094  RH  076%=      5-min Rain = 0
KGU1 101202Z 03004KT 14/09 A3032 RMK A01 T01380094  RH  076%=      5-min Rain = 0
KGU1 101203Z 03004KT 14/09 A3032 RMK A01 T01380094  RH  076%=      5-min Rain = 0
KGU1 101204Z 02004KT 14/09 A3032 RMK A01 T01380094  RH  076%=      5-min Rain = 0
KGU1 101205Z 01004KT 14/09 A3032 RMK A01 T01380094  RH  076%=      5-min Rain = 0
KGU1 101206Z 01004KT 14/09 A3032 RMK A01 T01370094  RH  076%=      5-min Rain = 0
KGU1 101207Z 01004KT 14/09 A3032 RMK A01 T01370094  RH  076%=      5-min Rain = 0
KGU1 101208Z 01005KT 14/09 A3032 RMK A01 T01360094  RH  077%=      5-min Rain = 0
KGU1 101209Z 01005KT 14/09 A3032 RMK A01 T01360094  RH  077%=      5-min Rain = 0
KGU1 101210Z 02005KT 14/09 A3032 RMK A01 T01360094  RH  077%=      5-min Rain = 0
KGU1 101211Z 01005KT 14/09 A3032 RMK A01 T01360094  RH  077%=      5-min Rain = 0
KGU1 101212Z 02005KT 14/09 A3032 RMK A01 T01360094  RH  077%=      5-min Rain = 0
KGU1 101213Z 03004KT 14/09 A3032 RMK A01 T01370094  RH  077%=      5-min Rain = 0
KGU1 101214Z 03004KT 14/09 A3032 RMK A01 T01370094  RH  077%=      5-min Rain = 0
KGU1 101215Z 02005KT 14/09 A3032 RMK A01 T01370094  RH  077%=      5-min Rain = 0
KGU1 101216Z 01005KT 14/09 A3032 RMK A01 T01370094  RH  077%=      5-min Rain = 0
KGU1 101217Z 01006KT 14/09 A3032 RMK A01 T01360094  RH  077%=      5-min Rain = 0
KGU1 101218Z 01005KT 14/09 A3032 RMK A01 T01360094  RH  077%=      5-min Rain = 0
KGU1 101219Z 01005KT 14/09 A3032 RMK A01 T01360094  RH  077%=      5-min Rain = 0
KGU1 101220Z 01006KT 14/10 A3032 RMK A01 T01360095  RH  077%=      5-min Rain = 0
KGU1 101221Z 02006KT 14/10 A3032 RMK A01 T01370095  RH  077%=      5-min Rain = 0
KGU1 101222Z 02005KT 14/10 A3032 RMK A01 T01370095  RH  077%=      5-min Rain = 0
KGU1 101223Z 02005KT 14/10 A3032 RMK A01 T01370095  RH  077%=      5-min Rain = 0
KGU1 101224Z 01005KT 14/10 A3032 RMK A01 T01370095  RH  077%=      5-min Rain = 0
KGU1 101225Z 02005KT 14/10 A3032 RMK A01 T01370095  RH  077%=      5-min Rain = 0
KGU1 101226Z 02005KT 14/10 A3032 RMK A01 T01380095  RH  077%=      5-min Rain = 0
KGU1 101227Z 02005KT 14/10 A3032 RMK A01 T01380095  RH  077%=      5-min Rain = 0
KGU1 101228Z 02005KT 14/10 A3032 RMK A01 T01380095  RH  077%=      5-min Rain = 0
KGU1 101229Z 02005KT 14/10 A3032 RMK A01 T01380095  RH  077%=      5-min Rain = 0
KGU1 101230Z 01005KT 14/10 A3032 RMK A01 T01380095  RH  077%=      5-min Rain = 0
KGU1 101231Z 01005KT 14/10 A3032 RMK A01 T01380095  RH  077%=      5-min Rain = 0
KGU1 101232Z 01005KT 14/10 A3032 RMK A01 T01380095  RH  077%=      5-min Rain = 0
KGU1 101233Z 02005KT 14/10 A3032 RMK A01 T01380095  RH  077%=      5-min Rain = 0
KGU1 101234Z 02005KT 14/10 A3032 RMK A01 T01380095  RH  076%=      5-min Rain = 0
KGU1 101235Z 02004KT 14/10 A3032 RMK A01 T01390095  RH  076%=      5-min Rain = 0
KGU1 101236Z 02004KT 14/10 A3032 RMK A01 T01390095  RH  076%=      5-min Rain = 0
KGU1 101237Z 02005KT 14/10 A3032 RMK A01 T01390095  RH  076%=      5-min Rain = 0
KGU1 101238Z 02004KT 14/10 A3032 RMK A01 T01390095  RH  076%=      5-min Rain = 0
KGU1 101239Z 02004KT 14/10 A3032 RMK A01 T01390095  RH  076%=      5-min Rain = 0
KGU1 101240Z 03005KT 14/10 A3032 RMK A01 T01390095  RH  076%=      5-min Rain = 0
KGU1 101241Z 03005KT 14/10 A3032 RMK A01 T01390095  RH  076%=      5-min Rain = 0
KGU1 101242Z 03004KT 14/10 A3032 RMK A01 T01390095  RH  076%=      5-min Rain = 0
KGU1 101243Z 03004KT 14/10 A3032 RMK A01 T01390095  RH  076%=      5-min Rain = 0
KGU1 101244Z 02004KT 14/10 A3032 RMK A01 T01390095  RH  076%=      5-min Rain = 0
KGU1 101245Z 03004KT 14/10 A3032 RMK A01 T01390095  RH  076%=      5-min Rain = 0
KGU1 101246Z 03003KT 14/10 A3032 RMK A01 T01380095  RH  076%=      5-min Rain = 0
KGU1 101247Z 04004KT 14/10 A3032 RMK A01 T01380095  RH  077%=      5-min Rain = 0
KGU1 101248Z 03004KT 14/10 A3032 RMK A01 T01380095  RH  077%=      5-min Rain = 0
KGU1 101249Z 04003KT 14/10 A3032 RMK A01 T01380095  RH  077%=      5-min Rain = 0
KGU1 101250Z 03004KT 14/10 A3032 RMK A01 T01370095  RH  077%=      5-min Rain = 0
KGU1 101251Z 03003KT 14/10 A3033 RMK A01 T01370095  RH  077%=      5-min Rain = 0
KGU1 101252Z 03003KT 14/10 A3033 RMK A01 T01360095  RH  077%=      5-min Rain = 0
KGU1 101253Z 03004KT 14/10 A3033 RMK A01 T01370095  RH  077%=      5-min Rain = 0
KGU1 101254Z 03004KT 14/10 A3033 RMK A01 T01370095  RH  077%=      5-min Rain = 0
KGU1 101255Z 03004KT 14/10 A3033 RMK A01 T01370095  RH  077%=      5-min Rain = 0
KGU1 101256Z 04004KT 14/10 A3033 RMK A01 T01370095  RH  077%=      5-min Rain = 0
KGU1 101257Z 03004KT 14/10 A3033 RMK A01 T01380095  RH  077%=      5-min Rain = 0
KGU1 101258Z 04004KT 14/10 A3033 RMK A01 T01380096  RH  077%=      5-min Rain = 0
KGU1 101259Z 03004KT 14/10 A3033 RMK A01 T01380096  RH  077%=      5-min Rain = 0
KGU1 101300Z 03004KT 14/10 A3033 RMK A01 T01380096  RH  077%=      5-min Rain = 0
KGU1 101301Z 03004KT 14/10 A3033 RMK A01 T01380096  RH  077%=      5-min Rain = 0
KGU1 101302Z 03004KT 14/10 A3033 RMK A01 T01380096  RH  077%=      5-min Rain = 0
KGU1 101303Z 02004KT 14/10 A3033 RMK A01 T01390096  RH  077%=      5-min Rain = 0
KGU1 101304Z 02004KT 14/10 A3033 RMK A01 T01390097  RH  077%=      5-min Rain = 0
KGU1 101305Z 03004KT 14/10 A3033 RMK A01 T01390097  RH  077%=      5-min Rain = 0
KGU1 101306Z 03005KT 14/10 A3033 RMK A01 T01400097  RH  077%=      5-min Rain = 0
KGU1 101307Z 03006KT 14/10 A3033 RMK A01 T01410097  RH  076%=      5-min Rain = 0
KGU1 101308Z 03005KT 14/10 A3033 RMK A01 T01420097  RH  076%=      5-min Rain = 0
KGU1 101309Z 03004KT 14/10 A3033 RMK A01 T01430098  RH  075%=      5-min Rain = 0
KGU1 101310Z 03004KT 14/10 A3033 RMK A01 T01430098  RH  075%=      5-min Rain = 0
KGU1 101311Z 03004KT 14/10 A3033 RMK A01 T01440098  RH  075%=      5-min Rain = 0
KGU1 101312Z 03004KT 14/10 A3033 RMK A01 T01440098  RH  075%=      5-min Rain = 0
KGU1 101313Z 04004KT 14/10 A3033 RMK A01 T01440098  RH  075%=      5-min Rain = 0
KGU1 101314Z 04005KT 14/10 A3033 RMK A01 T01440098  RH  075%=      5-min Rain = 0
KGU1 101315Z 05004KT 14/10 A3033 RMK A01 T01440098  RH  075%=      5-min Rain = 0
KGU1 101316Z 05004KT 15/10 A3033 RMK A01 T01450099  RH  075%=      5-min Rain = 0
KGU1 101317Z 04004KT 15/10 A3033 RMK A01 T01450099  RH  075%=      5-min Rain = 0
KGU1 101318Z 04004KT 15/10 A3033 RMK A01 T01450099  RH  075%=      5-min Rain = 0
KGU1 101319Z 04004KT 15/10 A3033 RMK A01 T01460099  RH  075%=      5-min Rain = 0
KGU1 101320Z 04004KT 15/10 A3033 RMK A01 T01460100  RH  075%=      5-min Rain = 0
KGU1 101321Z 04005KT 15/10 A3033 RMK A01 T01470099  RH  074%=      5-min Rain = 0
KGU1 101322Z 03005KT 15/10 A3033 RMK A01 T01480099  RH  074%=      5-min Rain = 0
KGU1 101323Z 04005KT 15/10 A3033 RMK A01 T01490100  RH  074%=      5-min Rain = 0
KGU1 101324Z 04005KT 15/10 A3033 RMK A01 T01490100  RH  074%=      5-min Rain = 0
KGU1 101325Z 04005KT 15/10 A3033 RMK A01 T01500100  RH  073%=      5-min Rain = 0
KGU1 101326Z 05005KT 15/10 A3034 RMK A01 T01510100  RH  073%=      5-min Rain = 0
KGU1 101327Z 05004KT 15/10 A3034 RMK A01 T01520100  RH  072%=      5-min Rain = 0
KGU1 101328Z 05004KT 15/10 A3034 RMK A01 T01530100  RH  072%=      5-min Rain = 0
KGU1 101329Z 05004KT 15/10 A3034 RMK A01 T01530100  RH  072%=      5-min Rain = 0
KGU1 101330Z 05004KT 15/10 A3034 RMK A01 T01540101  RH  072%=      5-min Rain = 0
KGU1 101331Z 04004KT 16/10 A3034 RMK A01 T01550100  RH  071%=      5-min Rain = 0
KGU1 101332Z 04005KT 16/10 A3034 RMK A01 T01560100  RH  070%=      5-min Rain = 0
KGU1 101333Z 04005KT 16/10 A3034 RMK A01 T01560100  RH  070%=      5-min Rain = 0
KGU1 101334Z 04004KT 16/10 A3034 RMK A01 T01570100  RH  070%=      5-min Rain = 0
KGU1 101335Z 04005KT 16/10 A3034 RMK A01 T01580101  RH  070%=      5-min Rain = 0
KGU1 101336Z 04005KT 16/10 A3034 RMK A01 T01580101  RH  070%=      5-min Rain = 0
KGU1 101337Z 04005KT 16/10 A3034 RMK A01 T01590101  RH  069%=      5-min Rain = 0
KGU1 101338Z 04005KT 16/10 A3034 RMK A01 T01600101  RH  069%=      5-min Rain = 0
KGU1 101339Z 05005KT 16/10 A3034 RMK A01 T01600101  RH  069%=      5-min Rain = 0
KGU1 101340Z 05005KT 16/10 A3034 RMK A01 T01610101  RH  069%=      5-min Rain = 0
KGU1 101341Z 05005KT 16/10 A3034 RMK A01 T01620100  RH  068%=      5-min Rain = 0
KGU1 101342Z 05004KT 16/10 A3034 RMK A01 T01630101  RH  068%=      5-min Rain = 0
KGU1 101343Z 04005KT 16/10 A3034 RMK A01 T01640101  RH  067%=      5-min Rain = 0
KGU1 101344Z 05005KT 17/10 A3034 RMK A01 T01650102  RH  067%=      5-min Rain = 0
KGU1 101345Z 05005KT 17/10 A3034 RMK A01 T01660103  RH  067%=      5-min Rain = 0
KGU1 101346Z 05005KT 17/10 A3034 RMK A01 T01670103  RH  067%=      5-min Rain = 0
KGU1 101347Z 05007KT 17/10 A3034 RMK A01 T01680102  RH  066%=      5-min Rain = 0
KGU1 101348Z 05005KT 17/10 A3034 RMK A01 T01680102  RH  066%=      5-min Rain = 0
KGU1 101349Z 05006KT 17/10 A3034 RMK A01 T01680103  RH  067%=      5-min Rain = 0
KGU1 101350Z 05005KT 17/10 A3034 RMK A01 T01680104  RH  067%=      5-min Rain = 0
KGU1 101351Z 05005KT 17/10 A3034 RMK A01 T01680104  RH  067%=      5-min Rain = 0
KGU1 101352Z 04005KT 17/10 A3034 RMK A01 T01690104  RH  067%=      5-min Rain = 0
KGU1 101353Z 05005KT 17/11 A3034 RMK A01 T01690105  RH  067%=      5-min Rain = 0
KGU1 101354Z 06005KT 17/11 A3034 RMK A01 T01700105  RH  067%=      5-min Rain = 0
KGU1 101355Z 05004KT 17/11 A3034 RMK A01 T01710107  RH  067%=      5-min Rain = 0
KGU1 101356Z 04006KT 17/11 A3034 RMK A01 T01710106  RH  066%=      5-min Rain = 0
KGU1 101357Z 06005KT 17/11 A3034 RMK A01 T01710107  RH  067%=      5-min Rain = 0
KGU1 101358Z 06005KT 17/11 A3034 RMK A01 T01720107  RH  067%=      5-min Rain = 0
KGU1 101359Z 06004KT 17/11 A3034 RMK A01 T01720108  RH  067%=      5-min Rain = 0
KGU1 101400Z 06007KT 17/11 A3034 RMK A01 T01720108  RH  067%=      5-min Rain = 0
KGU1 101401Z 06007KT 17/11 A3034 RMK A01 T01710109  RH  068%=      5-min Rain = 0
KGU1 101402Z 06006KT 17/11 A3034 RMK A01 T01710109  RH  068%=      5-min Rain = 0
KGU1 101403Z 07007KT 17/11 A3034 RMK A01 T01710109  RH  068%=      5-min Rain = 0
KGU1 101404Z 07006KT 17/11 A3034 RMK A01 T01700110  RH  069%=      5-min Rain = 0
KGU1 101405Z 06006KT 17/11 A3034 RMK A01 T01710109  RH  068%=      5-min Rain = 0
KGU1 101406Z 05006KT 17/11 A3034 RMK A01 T01710109  RH  068%=      5-min Rain = 0
KGU1 101407Z 05006KT 17/11 A3034 RMK A01 T01710109  RH  068%=      5-min Rain = 0
KGU1 101408Z 06005KT 17/11 A3034 RMK A01 T01710109  RH  068%=      5-min Rain = 0
KGU1 101409Z 07005KT 17/11 A3034 RMK A01 T01720109  RH  068%=      5-min Rain = 0
KGU1 101410Z 07005KT 17/11 A3034 RMK A01 T01720110  RH  068%=      5-min Rain = 0
KGU1 101411Z 06005KT 17/11 A3034 RMK A01 T01730110  RH  067%=      5-min Rain = 0
KGU1 101412Z 06007KT 17/11 A3034 RMK A01 T01730109  RH  067%=      5-min Rain = 0
KGU1 101413Z 06006KT 17/11 A3034 RMK A01 T01730109  RH  067%=      5-min Rain = 0
KGU1 101414Z 06005KT 17/11 A3034 RMK A01 T01730110  RH  067%=      5-min Rain = 0
KGU1 101415Z 05005KT 17/11 A3034 RMK A01 T01740110  RH  067%=      5-min Rain = 0
KGU1 101416Z 05006KT 18/11 A3034 RMK A01 T01750108  RH  066%=      5-min Rain = 0
KGU1 101417Z 05005KT 18/11 A3034 RMK A01 T01750110  RH  066%=      5-min Rain = 0
KGU1 101418Z 05006KT 18/11 A3034 RMK A01 T01760110  RH  067%=      5-min Rain = 0
KGU1 101419Z 04007KT 18/11 A3034 RMK A01 T01760111  RH  067%=      5-min Rain = 0
KGU1 101420Z 06005KT 18/11 A3034 RMK A01 T01770110  RH  066%=      5-min Rain = 0
KGU1 101421Z 07006KT 18/11 A3034 RMK A01 T01770110  RH  066%=      5-min Rain = 0
KGU1 101422Z 07006KT 18/11 A3034 RMK A01 T01780110  RH  065%=      5-min Rain = 0
KGU1 101423Z 06006KT 18/11 A3034 RMK A01 T01780110  RH  065%=      5-min Rain = 0
KGU1 101424Z 06007KT 18/11 A3034 RMK A01 T01790110  RH  065%=      5-min Rain = 0
KGU1 101425Z 07007KT 18/11 A3034 RMK A01 T01790110  RH  065%=      5-min Rain = 0
KGU1 101426Z 07006KT 18/11 A3034 RMK A01 T01790110  RH  065%=      5-min Rain = 0
KGU1 101427Z 07007KT 18/11 A3034 RMK A01 T01790109  RH  065%=      5-min Rain = 0
KGU1 101428Z 06008KT 18/11 A3034 RMK A01 T01790111  RH  066%=      5-min Rain = 0
KGU1 101429Z 07008KT 18/11 A3034 RMK A01 T01790111  RH  066%=      5-min Rain = 0
KGU1 101430Z 06006KT 18/11 A3034 RMK A01 T01780111  RH  066%=      5-min Rain = 0
KGU1 101431Z 07007KT 18/11 A3034 RMK A01 T01780111  RH  066%=      5-min Rain = 0
KGU1 101432Z 07007KT 18/11 A3034 RMK A01 T01780111  RH  066%=      5-min Rain = 0
KGU1 101433Z 06006KT 18/11 A3034 RMK A01 T01790114  RH  067%=      5-min Rain = 0
KGU1 101434Z 06008KT 18/11 A3035 RMK A01 T01800114  RH  067%=      5-min Rain = 0
KGU1 101435Z 07008KT 18/11 A3034 RMK A01 T01800113  RH  066%=      5-min Rain = 0
KGU1 101436Z 07008KT 18/11 A3035 RMK A01 T01790112  RH  066%=      5-min Rain = 0
KGU1 101437Z 06007KT 18/11 A3035 RMK A01 T01790112  RH  066%=      5-min Rain = 0
KGU1 101438Z 07007KT 18/11 A3035 RMK A01 T01800112  RH  065%=      5-min Rain = 0
KGU1 101439Z 07008KT 18/11 A3035 RMK A01 T01800110  RH  065%=      5-min Rain = 0
KGU1 101440Z 08007KT 18/11 A3035 RMK A01 T01790112  RH  066%=      5-min Rain = 0
KGU1 101441Z 08009KT 18/11 A3035 RMK A01 T01800114  RH  066%=      5-min Rain = 0
KGU1 101442Z 05008KT 18/12 A3035 RMK A01 T01800115  RH  067%=      5-min Rain = 0
KGU1 101443Z 05009KT 18/12 A3035 RMK A01 T01800115  RH  067%=      5-min Rain = 0
KGU1 101444Z 06007KT 18/12 A3035 RMK A01 T01800115  RH  067%=      5-min Rain = 0
KGU1 101445Z 06005KT 18/12 A3035 RMK A01 T01810116  RH  067%=      5-min Rain = 0
KGU1 101446Z 07006KT 18/11 A3035 RMK A01 T01820114  RH  066%=      5-min Rain = 0
KGU1 101447Z 07006KT 18/12 A3035 RMK A01 T01830117  RH  067%=      5-min Rain = 0
KGU1 101448Z 07008KT 18/12 A3035 RMK A01 T01830118  RH  067%=      5-min Rain = 0
KGU1 101449Z 07007KT 18/12 A3035 RMK A01 T01830118  RH  067%=      5-min Rain = 0
KGU1 101450Z 06007KT 18/12 A3035 RMK A01 T01820120  RH  068%=      5-min Rain = 0
KGU1 101451Z 06007KT 18/12 A3035 RMK A01 T01840120  RH  068%=      5-min Rain = 0
KGU1 101452Z 05009KT 18/12 A3035 RMK A01 T01840117  RH  066%=      5-min Rain = 0
KGU1 101453Z 06007KT 18/12 A3035 RMK A01 T01840117  RH  066%=      5-min Rain = 0
KGU1 101454Z 06007KT 18/12 A3035 RMK A01 T01830117  RH  066%=      5-min Rain = 0
KGU1 101455Z 07006KT 18/12 A3035 RMK A01 T01830120  RH  068%=      5-min Rain = 0
KGU1 101456Z 07007KT 18/12 A3035 RMK A01 T01840121  RH  068%=      5-min Rain = 0
KGU1 101457Z 07009KT 19/12 A3035 RMK A01 T01850122  RH  068%=      5-min Rain = 0
KGU1 101458Z 07007KT 18/12 A3035 RMK A01 T01840121  RH  068%=      5-min Rain = 0
KGU1 101459Z 08008KT 18/12 A3035 RMK A01 T01830121  RH  068%=      5-min Rain = 0
KGU1 101500Z 07007KT 18/12 A3035 RMK A01 T01830120  RH  068%=      5-min Rain = 0
KGU1 101501Z 06007KT 18/12 A3035 RMK A01 T01840121  RH  068%=      5-min Rain = 0
KGU1 101502Z 07007KT 18/12 A3035 RMK A01 T01840120  RH  067%=      5-min Rain = 0
KGU1 101503Z 07008KT 19/12 A3035 RMK A01 T01860120  RH  067%=      5-min Rain = 0
KGU1 101504Z 08006KT 19/12 A3035 RMK A01 T01850122  RH  068%=      5-min Rain = 0
KGU1 101505Z 08008KT 19/12 A3035 RMK A01 T01870122  RH  067%=      5-min Rain = 0
KGU1 101506Z 07008KT 19/12 A3035 RMK A01 T01870120  RH  066%=      5-min Rain = 0
KGU1 101507Z 08008KT 19/12 A3035 RMK A01 T01870121  RH  067%=      5-min Rain = 0
KGU1 101508Z 05009KT 19/12 A3036 RMK A01 T01870120  RH  066%=      5-min Rain = 0
KGU1 101509Z 06006KT 19/12 A3036 RMK A01 T01880121  RH  067%=      5-min Rain = 0
KGU1 101510Z 06007KT 19/12 A3036 RMK A01 T01900120  RH  065%=      5-min Rain = 0
KGU1 101511Z 08008KT 19/12 A3036 RMK A01 T01900119  RH  065%=      5-min Rain = 0
KGU1 101512Z 05008KT 19/12 A3036 RMK A01 T01890121  RH  066%=      5-min Rain = 0
KGU1 101513Z 07009KT 19/12 A3036 RMK A01 T01880122  RH  067%=      5-min Rain = 0
KGU1 101514Z 08008KT 19/12 A3036 RMK A01 T01880123  RH  067%=      5-min Rain = 0
KGU1 101515Z 08010KT 19/12 A3036 RMK A01 T01870122  RH  067%=      5-min Rain = 0
KGU1 101516Z 06008KT 19/12 A3036 RMK A01 T01860122  RH  068%=      5-min Rain = 0
KGU1 101517Z 07010KT 19/12 A3036 RMK A01 T01850120  RH  067%=      5-min Rain = 0
KGU1 101518Z 07010KT 18/12 A3036 RMK A01 T01840119  RH  067%=      5-min Rain = 0
KGU1 101519Z 07009KT 18/12 A3036 RMK A01 T01840120  RH  067%=      5-min Rain = 0
KGU1 101520Z 06007KT 19/12 A3036 RMK A01 T01850119  RH  067%=      5-min Rain = 0
KGU1 101521Z 07007KT 19/12 A3036 RMK A01 T01860119  RH  066%=      5-min Rain = 0
KGU1 101522Z 07008KT 19/12 A3036 RMK A01 T01870119  RH  066%=      5-min Rain = 0
KGU1 101523Z 06007KT 19/12 A3036 RMK A01 T01870122  RH  067%=      5-min Rain = 0
KGU1 101524Z 07007KT 19/12 A3036 RMK A01 T01890121  RH  066%=      5-min Rain = 0
KGU1 101525Z 07009KT 19/12 A3036 RMK A01 T01890117  RH  064%=      5-min Rain = 0
KGU1 101526Z 06007KT 19/12 A3036 RMK A01 T01880120  RH  066%=      5-min Rain = 0
KGU1 101527Z 08010KT 19/12 A3036 RMK A01 T01880120  RH  065%=      5-min Rain = 0
KGU1 101528Z 07008KT 19/12 A3036 RMK A01 T01900122  RH  066%=      5-min Rain = 0
KGU1 101529Z 07008KT 19/12 A3036 RMK A01 T01910120  RH  064%=      5-min Rain = 0
KGU1 101530Z 08009KT 19/12 A3036 RMK A01 T01910121  RH  065%=      5-min Rain = 0
KGU1 101531Z 09008KT 19/12 A3036 RMK A01 T01900121  RH  065%=      5-min Rain = 0
KGU1 101532Z 08009KT 19/12 A3036 RMK A01 T01900122  RH  066%=      5-min Rain = 0
KGU1 101533Z 08009KT 19/12 A3036 RMK A01 T01890121  RH  066%=      5-min Rain = 0
KGU1 101534Z 06006KT 19/12 A3036 RMK A01 T01910123  RH  066%=      5-min Rain = 0
KGU1 101535Z 07008KT 19/12 A3036 RMK A01 T01940119  RH  063%=      5-min Rain = 0
KGU1 101536Z 07007KT 20/12 A3036 RMK A01 T01950118  RH  062%=      5-min Rain = 0
KGU1 101537Z 07010KT 19/12 A3036 RMK A01 T01940118  RH  063%=      5-min Rain = 0
KGU1 101538Z 06008KT 19/12 A3036 RMK A01 T01920118  RH  063%=      5-min Rain = 0
KGU1 101539Z 06006KT 19/12 A3036 RMK A01 T01920120  RH  064%=      5-min Rain = 0
KGU1 101540Z 08009KT 19/12 A3036 RMK A01 T01930119  RH  063%=      5-min Rain = 0
KGU1 101541Z 08009KT 19/12 A3036 RMK A01 T01930120  RH  064%=      5-min Rain = 0
KGU1 101542Z 06007KT 19/12 A3036 RMK A01 T01930120  RH  064%=      5-min Rain = 0
KGU1 101543Z 06006KT 19/12 A3036 RMK A01 T01920121  RH  065%=      5-min Rain = 0
KGU1 101544Z 06006KT 19/12 A3036 RMK A01 T01940122  RH  064%=      5-min Rain = 0
KGU1 101545Z 05008KT 20/12 A3036 RMK A01 T01950123  RH  064%=      5-min Rain = 0
KGU1 101546Z 06009KT 20/12 A3036 RMK A01 T01950119  RH  063%=      5-min Rain = 0
KGU1 101547Z 06007KT 19/12 A3036 RMK A01 T01930119  RH  063%=      5-min Rain = 0
KGU1 101548Z 06009KT 19/12 A3036 RMK A01 T01930119  RH  064%=      5-min Rain = 0
KGU1 101549Z 07008KT 19/12 A3036 RMK A01 T01930118  RH  063%=      5-min Rain = 0
KGU1 101550Z 07006KT 19/12 A3036 RMK A01 T01930118  RH  063%=      5-min Rain = 0
KGU1 101551Z 07008KT 20/12 A3036 RMK A01 T01950118  RH  062%=      5-min Rain = 0
KGU1 101552Z 08008KT 20/12 A3036 RMK A01 T01960115  RH  061%=      5-min Rain = 0
KGU1 101553Z 08008KT 20/12 A3036 RMK A01 T01970116  RH  061%=      5-min Rain = 0
KGU1 101554Z 05008KT 20/12 A3036 RMK A01 T01990115  RH  059%=      5-min Rain = 0
KGU1 101555Z 05007KT 20/11 A3036 RMK A01 T01980114  RH  059%=      5-min Rain = 0
KGU1 101556Z 07007KT 20/12 A3036 RMK A01 T01990118  RH  061%=      5-min Rain = 0
KGU1 101557Z 05008KT 20/12 A3036 RMK A01 T02000115  RH  059%=      5-min Rain = 0
KGU1 101558Z 05009KT 20/11 A3036 RMK A01 T02000114  RH  059%=      5-min Rain = 0
KGU1 101559Z 06006KT 20/11 A3036 RMK A01 T01990110  RH  058%=      5-min Rain = 0
KGU1 101600Z 04009KT 20/11 A3036 RMK A01 T01990113  RH  059%=      5-min Rain = 0
KGU1 101601Z 05009KT 20/11 A3036 RMK A01 T01980111  RH  058%=      5-min Rain = 0
KGU1 101602Z 02007KT 20/11 A3036 RMK A01 T01970113  RH  059%=      5-min Rain = 0
KGU1 101603Z 02008KT 20/11 A3037 RMK A01 T01970114  RH  060%=      5-min Rain = 0
KGU1 101604Z 03009KT 20/11 A3037 RMK A01 T01980112  RH  059%=      5-min Rain = 0
KGU1 101605Z 02007KT 20/11 A3037 RMK A01 T01970108  RH  057%=      5-min Rain = 0
KGU1 101606Z 03008KT 20/11 A3037 RMK A01 T01960111  RH  059%=      5-min Rain = 0
KGU1 101607Z 04010KT 20/11 A3037 RMK A01 T01970109  RH  058%=      5-min Rain = 0
KGU1 101608Z 02008KT 20/11 A3037 RMK A01 T01990106  RH  056%=      5-min Rain = 0
KGU1 101609Z 03008KT 20/11 A3037 RMK A01 T01990105  RH  056%=      5-min Rain = 0
KGU1 101610Z 04008KT 20/10 A3037 RMK A01 T02000103  RH  054%=      5-min Rain = 0
KGU1 101611Z 04008KT 20/11 A3037 RMK A01 T02010106  RH  055%=      5-min Rain = 0
KGU1 101612Z 04009KT 20/10 A3037 RMK A01 T02030101  RH  053%=      5-min Rain = 0
KGU1 101613Z 05007KT 20/10 A3037 RMK A01 T02020099  RH  053%=      5-min Rain = 0
KGU1 101614Z 06007KT 20/11 A3037 RMK A01 T02010105  RH  055%=      5-min Rain = 0
KGU1 101615Z 06005KT 20/11 A3037 RMK A01 T02010106  RH  055%=      5-min Rain = 0
KGU1 101616Z 04004KT 20/11 A3037 RMK A01 T02020110  RH  056%=      5-min Rain = 0
KGU1 101617Z 03008KT 21/11 A3037 RMK A01 T02050108  RH  055%=      5-min Rain = 0
KGU1 101618Z 04010KT 21/10 A3037 RMK A01 T02060102  RH  052%=      5-min Rain = 0
KGU1 101619Z 05011KT 21/10 A3037 RMK A01 T02060101  RH  052%=      5-min Rain = 0
KGU1 101620Z 04010KT 21/10 A3037 RMK A01 T02060102  RH  052%=      5-min Rain = 0
KGU1 101621Z 04011KT 20/10 A3037 RMK A01 T02040102  RH  053%=      5-min Rain = 0
KGU1 101622Z 04009KT 20/10 A3037 RMK A01 T02020103  RH  054%=      5-min Rain = 0
KGU1 101623Z 05009KT 20/10 A3037 RMK A01 T02010100  RH  053%=      5-min Rain = 0
KGU1 101624Z 05005KT 20/10 A3037 RMK A01 T02000102  RH  054%=      5-min Rain = 0
KGU1 101625Z 06004KT 20/10 A3037 RMK A01 T02000102  RH  054%=      5-min Rain = 0
KGU1 101626Z 06008G14KT 20/10 A3037 RMK A01 T02020103  RH  054%=      5-min Rain = 0
KGU1 101627Z 08006KT 21/10 A3037 RMK A01 T02050101  RH  052%=      5-min Rain = 0
KGU1 101628Z 07010KT 21/10 A3037 RMK A01 T02060101  RH  052%=      5-min Rain = 0
KGU1 101629Z 05008KT 21/10 A3037 RMK A01 T02060099  RH  051%=      5-min Rain = 0
KGU1 101630Z 05009KT 21/10 A3037 RMK A01 T02060095  RH  049%=      5-min Rain = 0
KGU1 101631Z 05006KT 21/10 A3037 RMK A01 T02060096  RH  050%=      5-min Rain = 0
KGU1 101632Z 05009KT 21/10 A3037 RMK A01 T02070101  RH  051%=      5-min Rain = 0
KGU1 101633Z 05007KT 21/10 A3037 RMK A01 T02090098  RH  050%=      5-min Rain = 0
KGU1 101634Z 04009KT 21/10 A3037 RMK A01 T02100099  RH  050%=      5-min Rain = 0
KGU1 101635Z 03009KT 21/10 A3037 RMK A01 T02100101  RH  050%=      5-min Rain = 0
KGU1 101636Z 06007KT 21/10 A3037 RMK A01 T02100103  RH  051%=      5-min Rain = 0
KGU1 101637Z 07006KT 21/10 A3037 RMK A01 T02120102  RH  050%=      5-min Rain = 0
KGU1 101638Z 03006KT 21/10 A3037 RMK A01 T02130103  RH  050%=      5-min Rain = 0
KGU1 101639Z 05006KT 21/10 A3037 RMK A01 T02130101  RH  050%=      5-min Rain = 0
KGU1 101640Z 07009KT 21/10 A3037 RMK A01 T02130099  RH  049%=      5-min Rain = 0
KGU1 101641Z 07010KT 21/10 A3037 RMK A01 T02120096  RH  048%=      5-min Rain = 0
KGU1 101642Z 09011KT 21/10 A3037 RMK A01 T02100099  RH  050%=      5-min Rain = 0
KGU1 101643Z 11011KT 21/10 A3037 RMK A01 T02100100  RH  050%=      5-min Rain = 0
KGU1 101644Z 12008KT 21/10 A3037 RMK A01 T02110100  RH  050%=      5-min Rain = 0
KGU1 101645Z 11006KT 21/10 A3037 RMK A01 T02100098  RH  050%=      5-min Rain = 0
KGU1 101646Z 12005KT 21/10 A3037 RMK A01 T02100101  RH  051%=      5-min Rain = 0
KGU1 101647Z 09004KT 21/10 A3037 RMK A01 T02110100  RH  050%=      5-min Rain = 0
KGU1 101648Z 03006KT 21/10 A3037 RMK A01 T02110100  RH  050%=      5-min Rain = 0
KGU1 101649Z 06006KT 21/10 A3037 RMK A01 T02110101  RH  050%=      5-min Rain = 0
KGU1 101650Z 07005G10KT 21/10 A3037 RMK A01 T02130101  RH  050%=      5-min Rain = 0
KGU1 101651Z 09007KT 22/10 A3037 RMK A01 T02150100  RH  049%=      5-min Rain = 0
KGU1 101652Z 08005KT 22/10 A3037 RMK A01 T02150102  RH  049%=      5-min Rain = 0
KGU1 101653Z 08005KT 22/10 A3037 RMK A01 T02150100  RH  049%=      5-min Rain = 0
KGU1 101654Z 07007KT 21/10 A3037 RMK A01 T02140102  RH  049%=      5-min Rain = 0
KGU1 101655Z 06006KT 22/10 A3037 RMK A01 T02150102  RH  049%=      5-min Rain = 0
KGU1 101656Z 07007KT 22/10 A3037 RMK A01 T02150103  RH  050%=      5-min Rain = 0
KGU1 101657Z 06006KT 21/10 A3037 RMK A01 T02140103  RH  050%=      5-min Rain = 0
KGU1 101658Z 06006KT 21/10 A3037 RMK A01 T02140103  RH  050%=      5-min Rain = 0
KGU1 101659Z 07010KT 22/10 A3037 RMK A01 T02150096  RH  048%=      5-min Rain = 0
KGU1 101700Z 06008KT 21/10 A3037 RMK A01 T02140098  RH  048%=      5-min Rain = 0
KGU1 101701Z 07008KT 21/10 A3037 RMK A01 T02140096  RH  048%=      5-min Rain = 0
KGU1 101702Z 07007KT 21/10 A3037 RMK A01 T02130097  RH  048%=      5-min Rain = 0
KGU1 101703Z 08006KT 21/10 A3037 RMK A01 T02110098  RH  049%=      5-min Rain = 0
KGU1 101704Z 09008KT 21/10 A3037 RMK A01 T02130103  RH  050%=      5-min Rain = 0
KGU1 101705Z 07011KT 22/10 A3037 RMK A01 T02150100  RH  049%=      5-min Rain = 0
KGU1 101706Z 08010KT 22/10 A3037 RMK A01 T02150096  RH  048%=      5-min Rain = 0
KGU1 101707Z 07010KT 21/10 A3037 RMK A01 T02140097  RH  048%=      5-min Rain = 0
KGU1 101708Z 08009KT 21/10 A3037 RMK A01 T02130099  RH  049%=      5-min Rain = 0
KGU1 101709Z 09009KT 21/10 A3037 RMK A01 T02120101  RH  050%=      5-min Rain = 0
KGU1 101710Z 10009KT 21/10 A3037 RMK A01 T02120102  RH  050%=      5-min Rain = 0
KGU1 101711Z 09007KT 21/10 A3037 RMK A01 T02110102  RH  051%=      5-min Rain = 0
KGU1 101712Z 07005KT 21/11 A3037 RMK A01 T02110105  RH  051%=      5-min Rain = 0
KGU1 101713Z 08009KT 21/10 A3037 RMK A01 T02130100  RH  049%=      5-min Rain = 0
KGU1 101714Z 08009KT 21/09 A3037 RMK A01 T02130093  RH  047%=      5-min Rain = 0
KGU1 101715Z 09007KT 21/10 A3037 RMK A01 T02120097  RH  049%=      5-min Rain = 0
KGU1 101716Z 09008KT 21/10 A3037 RMK A01 T02120099  RH  049%=      5-min Rain = 0
KGU1 101717Z 09010KT 21/10 A3037 RMK A01 T02140099  RH  049%=      5-min Rain = 0
KGU1 101718Z 09009KT 22/10 A3037 RMK A01 T02160098  RH  048%=      5-min Rain = 0
KGU1 101719Z 07009KT 22/10 A3037 RMK A01 T02190103  RH  049%=      5-min Rain = 0
KGU1 101720Z 04007KT 22/11 A3037 RMK A01 T02210105  RH  048%=      5-min Rain = 0
KGU1 101721Z 04008KT 22/10 A3037 RMK A01 T02200101  RH  048%=      5-min Rain = 0
KGU1 101722Z 06006KT 22/10 A3037 RMK A01 T02170103  RH  049%=      5-min Rain = 0
KGU1 101723Z 08005KT 22/11 A3037 RMK A01 T02180106  RH  050%=      5-min Rain = 0
KGU1 101724Z 07008KT 22/10 A3037 RMK A01 T02210102  RH  048%=      5-min Rain = 0
KGU1 101725Z 07011KT 22/10 A3037 RMK A01 T02210100  RH  047%=      5-min Rain = 0
KGU1 101726Z 08011KT 22/10 A3037 RMK A01 T02180100  RH  048%=      5-min Rain = 0
KGU1 101727Z 08011KT 22/10 A3037 RMK A01 T02170100  RH  048%=      5-min Rain = 0
KGU1 101728Z 07007G14KT 22/10 A3037 RMK A01 T02170098  RH  047%=      5-min Rain = 0
KGU1 101729Z 09011KT 22/10 A3037 RMK A01 T02170096  RH  047%=      5-min Rain = 0
KGU1 101730Z 09010KT 22/09 A3037 RMK A01 T02160092  RH  046%=      5-min Rain = 0
KGU1 101731Z 10011KT 22/10 A3037 RMK A01 T02180095  RH  046%=      5-min Rain = 0
KGU1 101732Z 10008KT 22/09 A3037 RMK A01 T02190091  RH  045%=      5-min Rain = 0
KGU1 101733Z 09006KT 22/09 A3037 RMK A01 T02190092  RH  045%=      5-min Rain = 0
KGU1 101734Z 08008KT 22/10 A3037 RMK A01 T02190095  RH  046%=      5-min Rain = 0
KGU1 101735Z 07006KT 22/10 A3037 RMK A01 T02200096  RH  046%=      5-min Rain = 0
KGU1 101736Z 09011KT 22/10 A3036 RMK A01 T02180097  RH  047%=      5-min Rain = 0
KGU1 101737Z 08011KT 22/09 A3037 RMK A01 T02190094  RH  046%=      5-min Rain = 0
KGU1 101738Z 09012KT 22/09 A3037 RMK A01 T02200093  RH  045%=      5-min Rain = 0
KGU1 101739Z 08009KT 22/09 A3037 RMK A01 T02190092  RH  045%=      5-min Rain = 0
KGU1 101740Z 06006KT 22/10 A3037 RMK A01 T02180096  RH  046%=      5-min Rain = 0
KGU1 101741Z 05007KT 22/10 A3036 RMK A01 T02180098  RH  047%=      5-min Rain = 0
KGU1 101742Z 09008KT 22/10 A3036 RMK A01 T02200099  RH  047%=      5-min Rain = 0
KGU1 101743Z 10013KT 22/10 A3036 RMK A01 T02220095  RH  045%=      5-min Rain = 0
KGU1 101744Z 11009G14KT 22/09 A3036 RMK A01 T02220094  RH  045%=      5-min Rain = 0
KGU1 101745Z 09008KT 22/10 A3036 RMK A01 T02220096  RH  045%=      5-min Rain = 0
KGU1 101746Z 08008KT 22/10 A3036 RMK A01 T02230096  RH  045%=      5-min Rain = 0
KGU1 101747Z 07008G13KT 22/10 A3036 RMK A01 T02240099  RH  046%=      5-min Rain = 0
KGU1 101748Z 07010KT 23/10 A3036 RMK A01 T02270096  RH  044%=      5-min Rain = 0
KGU1 101749Z 06007KT 23/09 A3036 RMK A01 T02250094  RH  044%=      5-min Rain = 0
KGU1 101750Z 05004KT 22/10 A3036 RMK A01 T02220098  RH  046%=      5-min Rain = 0
KGU1 101751Z 09007KT 22/10 A3036 RMK A01 T02240100  RH  046%=      5-min Rain = 0
KGU1 101752Z 10010KT 23/10 A3036 RMK A01 T02260098  RH  045%=      5-min Rain = 0
KGU1 101753Z 09008KT 23/10 A3036 RMK A01 T02270102  RH  046%=      5-min Rain = 0
KGU1 101754Z 09007KT 23/10 A3036 RMK A01 T02290099  RH  044%=      5-min Rain = 0
KGU1 101755Z 10008KT 23/10 A3036 RMK A01 T02290100  RH  045%=      5-min Rain = 0
KGU1 101756Z 10009KT 23/10 A3036 RMK A01 T02280099  RH  045%=      5-min Rain = 0
KGU1 101757Z 07010KT 23/10 A3036 RMK A01 T02270097  RH  044%=      5-min Rain = 0
KGU1 101758Z 06012KT 23/10 A3036 RMK A01 T02250097  RH  045%=      5-min Rain = 0
KGU1 101759Z 09011KT 22/10 A3036 RMK A01 T02220097  RH  046%=      5-min Rain = 0
KGU1 101800Z 08010KT 22/10 A3036 RMK A01 T02210099  RH  046%=      5-min Rain = 0
KGU1 101801Z 09009KT 22/10 A3036 RMK A01 T02210099  RH  047%=      5-min Rain = 0
KGU1 101802Z 08008KT 22/10 A3036 RMK A01 T02220097  RH  046%=      5-min Rain = 0
KGU1 101803Z 06009KT 22/09 A3036 RMK A01 T02220093  RH  044%=      5-min Rain = 0
KGU1 101804Z 04008KT 22/09 A3036 RMK A01 T02220094  RH  045%=      5-min Rain = 0
KGU1 101805Z 04007KT 22/10 A3036 RMK A01 T02220095  RH  045%=      5-min Rain = 0
KGU1 101806Z 06006KT 22/09 A3036 RMK A01 T02230093  RH  044%=      5-min Rain = 0
KGU1 101807Z 08006KT 23/10 A3036 RMK A01 T02250096  RH  044%=      5-min Rain = 0
KGU1 101808Z 08006KT 23/09 A3036 RMK A01 T02270094  RH  043%=      5-min Rain = 0
KGU1 101809Z 09005KT 23/09 A3036 RMK A01 T02270094  RH  043%=      5-min Rain = 0
KGU1 101810Z 07010KT 23/10 A3036 RMK A01 T02280095  RH  044%=      5-min Rain = 0
KGU1 101811Z 08014KT 23/10 A3036 RMK A01 T02270097  RH  044%=      5-min Rain = 0
KGU1 101812Z 08010KT 22/10 A3036 RMK A01 T02240095  RH  044%=      5-min Rain = 0
KGU1 101813Z 08008G15KT 22/10 A3036 RMK A01 T02220097  RH  046%=      5-min Rain = 0
KGU1 101814Z 08009G14KT 22/09 A3036 RMK A01 T02230092  RH  044%=      5-min Rain = 0
KGU1 101815Z 10009KT 22/09 A3036 RMK A01 T02240094  RH  044%=      5-min Rain = 0
KGU1 101816Z 08007KT 22/10 A3036 RMK A01 T02240096  RH  045%=      5-min Rain = 0
KGU1 101817Z 08004KT 22/10 A3036 RMK A01 T02230096  RH  045%=      5-min Rain = 0
KGU1 101818Z 06006KT 22/10 A3036 RMK A01 T02240099  RH  046%=      5-min Rain = 0
KGU1 101819Z 05011KT 23/10 A3036 RMK A01 T02270095  RH  044%=      5-min Rain = 0
KGU1 101820Z 06006G11KT 23/09 A3036 RMK A01 T02260092  RH  043%=      5-min Rain = 0
KGU1 101821Z 05006KT 23/10 A3036 RMK A01 T02250095  RH  044%=      5-min Rain = 0
KGU1 101822Z 04009KT 23/10 A3036 RMK A01 T02270097  RH  044%=      5-min Rain = 0
KGU1 101823Z 06009KT 23/10 A3036 RMK A01 T02260097  RH  045%=      5-min Rain = 0
KGU1 101824Z 06008KT 23/10 A3036 RMK A01 T02250096  RH  044%=      5-min Rain = 0
KGU1 101825Z 06010KT 23/10 A3036 RMK A01 T02260096  RH  044%=      5-min Rain = 0
KGU1 101826Z 05010KT 23/09 A3036 RMK A01 T02280094  RH  043%=      5-min Rain = 0
KGU1 101827Z 06010KT 23/09 A3036 RMK A01 T02290093  RH  043%=      5-min Rain = 0
KGU1 101828Z 08012KT 23/09 A3036 RMK A01 T02300088  RH  041%=      5-min Rain = 0
KGU1 101829Z 08011KT 23/09 A3036 RMK A01 T02280086  RH  041%=      5-min Rain = 0
KGU1 101830Z 08008KT 23/09 A3036 RMK A01 T02270088  RH  042%=      5-min Rain = 0
KGU1 101831Z 08007KT 23/09 A3036 RMK A01 T02250088  RH  042%=      5-min Rain = 0
KGU1 101832Z 07007KT 22/09 A3036 RMK A01 T02240088  RH  042%=      5-min Rain = 0
KGU1 101833Z 07008KT 22/09 A3036 RMK A01 T02230089  RH  043%=      5-min Rain = 0
KGU1 101834Z 08012KT 23/09 A3036 RMK A01 T02260087  RH  042%=      5-min Rain = 0
KGU1 101835Z 09011KT 23/09 A3036 RMK A01 T02290088  RH  041%=      5-min Rain = 0
KGU1 101836Z 09012KT 23/08 A3036 RMK A01 T02310079  RH  038%=      5-min Rain = 0
KGU1 101837Z 09011KT 23/08 A3036 RMK A01 T02290076  RH  038%=      5-min Rain = 0
KGU1 101838Z 09008KT 23/08 A3036 RMK A01 T02270077  RH  039%=      5-min Rain = 0
KGU1 101839Z 09006KT 23/08 A3036 RMK A01 T02260076  RH  039%=      5-min Rain = 0
KGU1 101840Z 05008G13KT 23/09 A3036 RMK A01 T02270086  RH  041%=      5-min Rain = 0
KGU1 101841Z 05007KT 23/09 A3036 RMK A01 T02280090  RH  042%=      5-min Rain = 0
KGU1 101842Z 04009KT 23/09 A3036 RMK A01 T02270092  RH  043%=      5-min Rain = 0
KGU1 101843Z 03009KT 23/09 A3036 RMK A01 T02270093  RH  043%=      5-min Rain = 0
KGU1 101844Z 06008KT 23/09 A3035 RMK A01 T02290094  RH  043%=      5-min Rain = 0
KGU1 101845Z 04008KT 23/09 A3035 RMK A01 T02300094  RH  043%=      5-min Rain = 0
KGU1 101846Z 06007KT 23/09 A3035 RMK A01 T02290094  RH  043%=      5-min Rain = 0
KGU1 101847Z 11009KT 23/09 A3035 RMK A01 T02280094  RH  043%=      5-min Rain = 0
KGU1 101848Z 10010KT 23/10 A3035 RMK A01 T02280097  RH  044%=      5-min Rain = 0
KGU1 101849Z 11008KT 23/10 A3035 RMK A01 T02290095  RH  043%=      5-min Rain = 0
KGU1 101850Z 06012KT 23/10 A3035 RMK A01 T02320095  RH  042%=      5-min Rain = 0
KGU1 101851Z 06012KT 23/10 A3035 RMK A01 T02330095  RH  042%=      5-min Rain = 0
KGU1 101852Z 06010G15KT 23/09 A3035 RMK A01 T02310092  RH  042%=      5-min Rain = 0
KGU1 101853Z 05010KT 23/09 A3035 RMK A01 T02280091  RH  042%=      5-min Rain = 0
KGU1 101854Z 04010KT 23/09 A3035 RMK A01 T02260093  RH  044%=      5-min Rain = 0
KGU1 101855Z 04010G17KT 23/09 A3035 RMK A01 T02260094  RH  044%=      5-min Rain = 0
KGU1 101856Z 06010KT 23/09 A3035 RMK A01 T02280092  RH  043%=      5-min Rain = 0
KGU1 101857Z 06013G18KT 23/09 A3035 RMK A01 T02280090  RH  042%=      5-min Rain = 0
KGU1 101858Z 05010KT 23/09 A3035 RMK A01 T02260090  RH  043%=      5-min Rain = 0
KGU1 101859Z 06009KT 23/09 A3035 RMK A01 T02250088  RH  042%=      5-min Rain = 0
KGU1 101900Z 05008KT 23/09 A3035 RMK A01 T02250092  RH  043%=      5-min Rain = 0
KGU1 101901Z 05009KT 23/09 A3035 RMK A01 T02270092  RH  043%=      5-min Rain = 0
KGU1 101902Z 07011KT 23/09 A3035 RMK A01 T02270093  RH  043%=      5-min Rain = 0
KGU1 101903Z 09010KT 23/09 A3035 RMK A01 T02270093  RH  043%=      5-min Rain = 0
KGU1 101904Z 09010KT 23/09 A3035 RMK A01 T02270092  RH  043%=      5-min Rain = 0
KGU1 101905Z 09009KT 23/09 A3035 RMK A01 T02250093  RH  044%=      5-min Rain = 0
KGU1 101906Z 08006KT 22/09 A3035 RMK A01 T02240093  RH  044%=      5-min Rain = 0
KGU1 101907Z 07010KT 22/10 A3035 RMK A01 T02230096  RH  045%=      5-min Rain = 0
KGU1 101908Z 07011KT 23/09 A3035 RMK A01 T02250092  RH  043%=      5-min Rain = 0
KGU1 101909Z 07009KT 23/09 A3035 RMK A01 T02250094  RH  044%=      5-min Rain = 0
KGU1 101910Z 08007KT 23/10 A3035 RMK A01 T02260097  RH  044%=      5-min Rain = 0
KGU1 101911Z 08006KT 23/10 A3034 RMK A01 T02280096  RH  044%=      5-min Rain = 0
KGU1 101912Z 04012G17KT 23/10 A3034 RMK A01 T02300097  RH  044%=      5-min Rain = 0
KGU1 101913Z 03008KT 23/10 A3034 RMK A01 T02290096  RH  043%=      5-min Rain = 0
KGU1 101914Z 06012KT 23/10 A3034 RMK A01 T02300096  RH  043%=      5-min Rain = 0
KGU1 101915Z 06011KT 23/09 A3034 RMK A01 T02310093  RH  042%=      5-min Rain = 0
KGU1 101916Z 05012KT 23/09 A3034 RMK A01 T02300094  RH  043%=      5-min Rain = 0
KGU1 101917Z 06009KT 23/09 A3034 RMK A01 T02310094  RH  042%=      5-min Rain = 0
KGU1 101918Z 09006KT 23/10 A3034 RMK A01 T02320097  RH  043%=      5-min Rain = 0
KGU1 101919Z 10010KT 24/09 A3034 RMK A01 T02350094  RH  041%=      5-min Rain = 0
KGU1 101920Z 09008KT 24/10 A3034 RMK A01 T02360095  RH  041%=      5-min Rain = 0
KGU1 101921Z 07011KT 24/10 A3034 RMK A01 T02350095  RH  042%=      5-min Rain = 0
KGU1 101922Z 07011KT 24/09 A3034 RMK A01 T02360092  RH  041%=      5-min Rain = 0
KGU1 101923Z 07008KT 23/09 A3034 RMK A01 T02320094  RH  042%=      5-min Rain = 0
KGU1 101924Z 07005KT 23/10 A3034 RMK A01 T02310096  RH  043%=      5-min Rain = 0
KGU1 101925Z 06007KT 23/09 A3034 RMK A01 T02320094  RH  042%=      5-min Rain = 0
KGU1 101926Z 05008G17KT 23/10 A3034 RMK A01 T02320096  RH  043%=      5-min Rain = 0
KGU1 101927Z 07012KT 23/10 A3034 RMK A01 T02330095  RH  042%=      5-min Rain = 0
KGU1 101928Z 06008KT 23/10 A3034 RMK A01 T02320099  RH  043%=      5-min Rain = 0
KGU1 101929Z 07009KT 23/10 A3034 RMK A01 T02320096  RH  043%=      5-min Rain = 0
KGU1 101930Z 05008KT 23/10 A3034 RMK A01 T02310097  RH  043%=      5-min Rain = 0
KGU1 101931Z 06007KT 23/10 A3034 RMK A01 T02300095  RH  043%=      5-min Rain = 0
KGU1 101932Z 07010KT 23/10 A3034 RMK A01 T02290097  RH  044%=      5-min Rain = 0
KGU1 101933Z 07012KT 23/10 A3034 RMK A01 T02290096  RH  043%=      5-min Rain = 0
KGU1 101934Z 08011KT 23/10 A3034 RMK A01 T02290097  RH  044%=      5-min Rain = 0
KGU1 101935Z 07010KT 23/09 A3034 RMK A01 T02300094  RH  043%=      5-min Rain = 0
KGU1 101936Z 08009KT 23/10 A3034 RMK A01 T02290097  RH  044%=      5-min Rain = 0
KGU1 101937Z 07007KT 23/10 A3034 RMK A01 T02300095  RH  043%=      5-min Rain = 0
KGU1 101938Z 08008KT 23/10 A3034 RMK A01 T02310096  RH  043%=      5-min Rain = 0
KGU1 101939Z 09006KT 23/09 A3034 RMK A01 T02320094  RH  042%=      5-min Rain = 0
KGU1 101940Z 10009KT 23/10 A3034 RMK A01 T02320096  RH  043%=      5-min Rain = 0
KGU1 101941Z 11007KT 23/10 A3034 RMK A01 T02340096  RH  042%=      5-min Rain = 0
KGU1 101942Z 07008KT 24/10 A3034 RMK A01 T02360095  RH  041%=      5-min Rain = 0
KGU1 101943Z 07009KT 24/09 A3034 RMK A01 T02350094  RH  041%=      5-min Rain = 0
KGU1 101944Z 07009KT 23/10 A3034 RMK A01 T02330095  RH  042%=      5-min Rain = 0
KGU1 101945Z 05007KT 23/09 A3034 RMK A01 T02320094  RH  042%=      5-min Rain = 0
KGU1 101946Z 07003KT 23/09 A3034 RMK A01 T02300093  RH  042%=      5-min Rain = 0
KGU1 101947Z 10008KT 23/10 A3034 RMK A01 T02290095  RH  043%=      5-min Rain = 0
KGU1 101948Z 08011KT 23/09 A3034 RMK A01 T02280094  RH  043%=      5-min Rain = 0
KGU1 101949Z 08004KT 23/09 A3034 RMK A01 T02280093  RH  043%=      5-min Rain = 0
KGU1 101950Z 07008KT 23/10 A3033 RMK A01 T02280097  RH  044%=      5-min Rain = 0
KGU1 101951Z 08010KT 23/10 A3033 RMK A01 T02310097  RH  043%=      5-min Rain = 0
KGU1 101952Z 09010KT 23/10 A3033 RMK A01 T02340095  RH  042%=      5-min Rain = 0
KGU1 101953Z 09012KT 24/09 A3033 RMK A01 T02350094  RH  041%=      5-min Rain = 0
KGU1 101954Z 11010KT 24/10 A3033 RMK A01 T02360095  RH  041%=      5-min Rain = 0
KGU1 101955Z 10008KT 24/09 A3033 RMK A01 T02380094  RH  041%=      5-min Rain = 0
KGU1 101956Z 09008KT 24/09 A3033 RMK A01 T02380091  RH  040%=      5-min Rain = 0
KGU1 101957Z 08007KT 24/09 A3033 RMK A01 T02350092  RH  041%=      5-min Rain = 0
KGU1 101958Z 08007KT 23/09 A3033 RMK A01 T02330093  RH  042%=      5-min Rain = 0
KGU1 101959Z 08007KT 23/10 A3033 RMK A01 T02330096  RH  043%=      5-min Rain = 0
KGU1 102000Z 09011KT 24/09 A3033 RMK A01 T02360093  RH  041%=      5-min Rain = 0
KGU1 102001Z 09012KT 24/09 A3033 RMK A01 T02380091  RH  040%=      5-min Rain = 0
KGU1 102002Z 11008G14KT 24/09 A3033 RMK A01 T02380090  RH  039%=      5-min Rain = 0
KGU1 102003Z 09009KT 24/09 A3033 RMK A01 T02390092  RH  040%=      5-min Rain = 0
KGU1 102004Z 09011KT 24/09 A3033 RMK A01 T02390091  RH  039%=      5-min Rain = 0
KGU1 102005Z 08008KT 24/09 A3033 RMK A01 T02390091  RH  040%=      5-min Rain = 0
KGU1 102006Z 09007KT 24/09 A3033 RMK A01 T02390092  RH  040%=      5-min Rain = 0
KGU1 102007Z 10010KT 24/09 A3033 RMK A01 T02390089  RH  039%=      5-min Rain = 0
KGU1 102008Z 13013KT 24/09 A3033 RMK A01 T02380090  RH  040%=      5-min Rain = 0
KGU1 102009Z 12008G14KT 24/09 A3033 RMK A01 T02360088  RH  039%=      5-min Rain = 0
KGU1 102010Z 11007KT 24/09 A3033 RMK A01 T02360091  RH  040%=      5-min Rain = 0
KGU1 102011Z 09009KT 24/09 A3033 RMK A01 T02370089  RH  040%=      5-min Rain = 0
KGU1 102012Z 10010KT 24/09 A3033 RMK A01 T02380088  RH  039%=      5-min Rain = 0
KGU1 102013Z 11010KT 24/09 A3033 RMK A01 T02380087  RH  039%=      5-min Rain = 0
KGU1 102014Z 08012KT 24/09 A3033 RMK A01 T02380089  RH  039%=      5-min Rain = 0
KGU1 102015Z 08013KT 24/09 A3033 RMK A01 T02370087  RH  039%=      5-min Rain = 0
KGU1 102016Z 09011KT 24/09 A3033 RMK A01 T02350089  RH  040%=      5-min Rain = 0
KGU1 102017Z 08007KT 24/09 A3033 RMK A01 T02350091  RH  041%=      5-min Rain = 0
KGU1 102018Z 09008KT 24/09 A3033 RMK A01 T02370090  RH  040%=      5-min Rain = 0
KGU1 102019Z 06008G13KT 24/09 A3033 RMK A01 T02380088  RH  039%=      5-min Rain = 0
KGU1 102020Z 07009G14KT 24/09 A3033 RMK A01 T02370091  RH  040%=      5-min Rain = 0
KGU1 102021Z 08013KT 24/09 A3033 RMK A01 T02400087  RH  038%=      5-min Rain = 0
KGU1 102022Z 08009KT 24/09 A3033 RMK A01 T02380087  RH  039%=      5-min Rain = 0
KGU1 102023Z 08010KT 24/09 A3033 RMK A01 T02370089  RH  039%=      5-min Rain = 0
KGU1 102024Z 09012G17KT 24/09 A3033 RMK A01 T02390088  RH  039%=      5-min Rain = 0
KGU1 102025Z 09009KT 24/09 A3033 RMK A01 T02420089  RH  038%=      5-min Rain = 0
KGU1 102026Z 09010KT 24/09 A3033 RMK A01 T02420086  RH  037%=      5-min Rain = 0
KGU1 102027Z 08007KT 24/09 A3033 RMK A01 T02400087  RH  038%=      5-min Rain = 0
KGU1 102028Z 07008KT 24/09 A3033 RMK A01 T02410090  RH  039%=      5-min Rain = 0
KGU1 102029Z 06010KT 24/09 A3032 RMK A01 T02420089  RH  038%=      5-min Rain = 0
KGU1 102030Z 05008KT 24/09 A3032 RMK A01 T02400089  RH  039%=      5-min Rain = 0
KGU1 102031Z 07008KT 24/09 A3032 RMK A01 T02390090  RH  039%=      5-min Rain = 0
KGU1 102032Z 09006KT 24/09 A3032 RMK A01 T02390091  RH  040%=      5-min Rain = 0
KGU1 102033Z 07008KT 24/09 A3032 RMK A01 T02400087  RH  038%=      5-min Rain = 0
KGU1 102034Z 08011KT 24/08 A3032 RMK A01 T02390084  RH  038%=      5-min Rain = 0
KGU1 102035Z 09011KT 24/09 A3032 RMK A01 T02380085  RH  038%=      5-min Rain = 0
KGU1 102036Z 10011KT 24/09 A3032 RMK A01 T02380085  RH  038%=      5-min Rain = 0
KGU1 102037Z 09009KT 24/09 A3032 RMK A01 T02380086  RH  038%=      5-min Rain = 0
KGU1 102038Z 09006KT 24/09 A3032 RMK A01 T02370086  RH  039%=      5-min Rain = 0
KGU1 102039Z 08006KT 24/09 A3032 RMK A01 T02370088  RH  039%=      5-min Rain = 0
KGU1 102040Z 11009G18KT 24/09 A3032 RMK A01 T02380087  RH  039%=      5-min Rain = 0
KGU1 102041Z 10014G19KT 24/09 A3032 RMK A01 T02380086  RH  038%=      5-min Rain = 0
KGU1 102042Z 10011KT 24/09 A3032 RMK A01 T02380086  RH  038%=      5-min Rain = 0
KGU1 102043Z 09014KT 24/09 A3032 RMK A01 T02380086  RH  039%=      5-min Rain = 0
KGU1 102044Z 09011KT 24/09 A3032 RMK A01 T02360085  RH  039%=      5-min Rain = 0
KGU1 102045Z 08008KT 24/09 A3032 RMK A01 T02350086  RH  039%=      5-min Rain = 0
KGU1 102046Z 08008KT 23/09 A3032 RMK A01 T02330087  RH  040%=      5-min Rain = 0
KGU1 102047Z 09007KT 23/09 A3032 RMK A01 T02330087  RH  040%=      5-min Rain = 0
KGU1 102048Z 08007KT 23/09 A3032 RMK A01 T02340089  RH  040%=      5-min Rain = 0
KGU1 102049Z 10010KT 24/09 A3032 RMK A01 T02370089  RH  040%=      5-min Rain = 0
KGU1 102050Z 11013KT 24/09 A3032 RMK A01 T02400088  RH  038%=      5-min Rain = 0
KGU1 102051Z 10009KT 24/09 A3032 RMK A01 T02410086  RH  038%=      5-min Rain = 0
KGU1 102052Z 11011KT 24/09 A3032 RMK A01 T02390087  RH  039%=      5-min Rain = 0
KGU1 102053Z 11007KT 24/09 A3032 RMK A01 T02380088  RH  039%=      5-min Rain = 0
KGU1 102054Z 11009KT 24/09 A3032 RMK A01 T02380087  RH  039%=      5-min Rain = 0
KGU1 102055Z 09011KT 24/08 A3031 RMK A01 T02380083  RH  038%=      5-min Rain = 0
KGU1 102056Z 08011KT 24/08 A3031 RMK A01 T02390084  RH  038%=      5-min Rain = 0
KGU1 102057Z 07010KT 24/08 A3032 RMK A01 T02390083  RH  037%=      5-min Rain = 0
KGU1 102058Z 05012KT 24/09 A3032 RMK A01 T02390087  RH  039%=      5-min Rain = 0
KGU1 102059Z 05009KT 24/09 A3032 RMK A01 T02380085  RH  038%=      5-min Rain = 0
KGU1 102100Z 06004KT 24/09 A3031 RMK A01 T02370088  RH  039%=      5-min Rain = 0
KGU1 102101Z 10008KT 24/09 A3031 RMK A01 T02390090  RH  039%=      5-min Rain = 0
KGU1 102102Z 08007KT 24/09 A3031 RMK A01 T02420089  RH  038%=      5-min Rain = 0
KGU1 102103Z 07007KT 25/09 A3031 RMK A01 T02460089  RH  037%=      5-min Rain = 0
KGU1 102104Z 08010G17KT 25/09 A3031 RMK A01 T02490088  RH  036%=      5-min Rain = 0
KGU1 102105Z 07013KT 25/09 A3031 RMK A01 T02470089  RH  037%=      5-min Rain = 0
KGU1 102106Z 07009KT 25/09 A3031 RMK A01 T02450090  RH  038%=      5-min Rain = 0
KGU1 102107Z 06007KT 24/09 A3031 RMK A01 T02440089  RH  038%=      5-min Rain = 0
KGU1 102108Z 06007KT 24/09 A3031 RMK A01 T02420091  RH  039%=      5-min Rain = 0
KGU1 102109Z 05008KT 24/09 A3031 RMK A01 T02410092  RH  039%=      5-min Rain = 0
KGU1 102110Z 05009G14KT 24/09 A3031 RMK A01 T02420091  RH  039%=      5-min Rain = 0
KGU1 102111Z 04011KT 24/09 A3031 RMK A01 T02400090  RH  039%=      5-min Rain = 0
KGU1 102112Z 07008KT 24/09 A3031 RMK A01 T02390090  RH  039%=      5-min Rain = 0
KGU1 102113Z 07008KT 24/09 A3031 RMK A01 T02390087  RH  038%=      5-min Rain = 0
KGU1 102114Z 05010KT 24/09 A3031 RMK A01 T02370088  RH  039%=      5-min Rain = 0
KGU1 102115Z 05011KT 24/09 A3031 RMK A01 T02360088  RH  039%=      5-min Rain = 0
KGU1 102116Z 05009KT 23/09 A3031 RMK A01 T02340087  RH  040%=      5-min Rain = 0
KGU1 102117Z 05007KT 23/09 A3031 RMK A01 T02330089  RH  040%=      5-min Rain = 0
KGU1 102118Z 09009G17KT 23/09 A3031 RMK A01 T02340090  RH  040%=      5-min Rain = 0
KGU1 102119Z 08011KT 24/09 A3031 RMK A01 T02370087  RH  039%=      5-min Rain = 0
KGU1 102120Z 07010KT 24/09 A3031 RMK A01 T02400085  RH  038%=      5-min Rain = 0
KGU1 102121Z 07008KT 24/09 A3031 RMK A01 T02410087  RH  038%=      5-min Rain = 0
KGU1 102122Z 08009KT 24/09 A3031 RMK A01 T02420087  RH  038%=      5-min Rain = 0
KGU1 102123Z 09012KT 24/08 A3031 RMK A01 T02420084  RH  037%=      5-min Rain = 0
KGU1 102124Z 08008KT 24/09 A3031 RMK A01 T02380085  RH  038%=      5-min Rain = 0
KGU1 102125Z 09008KT 24/09 A3031 RMK A01 T02370086  RH  039%=      5-min Rain = 0
KGU1 102126Z 07009KT 24/08 A3031 RMK A01 T02370084  RH  038%=      5-min Rain = 0
KGU1 102127Z 07008KT 24/08 A3031 RMK A01 T02360084  RH  038%=      5-min Rain = 0
KGU1 102128Z 07004KT 24/08 A3031 RMK A01 T02360082  RH  038%=      5-min Rain = 0
KGU1 102129Z 11002KT 24/09 A3031 RMK A01 T02350086  RH  039%=      5-min Rain = 0
KGU1 102130Z 10007KT 24/09 A3031 RMK A01 T02360086  RH  039%=      5-min Rain = 0
KGU1 102131Z 11010KT 24/09 A3031 RMK A01 T02370085  RH  038%=      5-min Rain = 0
KGU1 102132Z 10012KT 24/08 A3031 RMK A01 T02370084  RH  038%=      5-min Rain = 0
KGU1 102133Z 09012KT 24/08 A3031 RMK A01 T02380083  RH  038%=      5-min Rain = 0
KGU1 102134Z 10011KT 24/08 A3031 RMK A01 T02380083  RH  038%=      5-min Rain = 0
KGU1 102135Z 10010KT 24/08 A303 RMK A01 T02380083  RH  038%=      5-min Rain = 0
KGU1 102136Z 11007KT 24/08 A303 RMK A01 T02380083  RH  038%=      5-min Rain = 0
KGU1 102137Z 10011G16KT 24/08 A303 RMK A01 T02380083  RH  038%=      5-min Rain = 0
KGU1 102138Z 10010KT 24/08 A3031 RMK A01 T02390083  RH  037%=      5-min Rain = 0
KGU1 102139Z 09009KT 24/08 A3031 RMK A01 T02390080  RH  037%=      5-min Rain = 0
KGU1 102140Z 10009KT 24/08 A3031 RMK A01 T02370081  RH  038%=      5-min Rain = 0
KGU1 102141Z 10010KT 24/08 A3031 RMK A01 T02370083  RH  038%=      5-min Rain = 0
KGU1 102142Z 10011KT 24/08 A3031 RMK A01 T02390082  RH  037%=      5-min Rain = 0
KGU1 102143Z 09011KT 24/08 A303 RMK A01 T02400080  RH  037%=      5-min Rain = 0
KGU1 102144Z 11010KT 24/08 A3031 RMK A01 T02380081  RH  037%=      5-min Rain = 0
KGU1 102145Z 11011KT 24/08 A303 RMK A01 T02370081  RH  037%=      5-min Rain = 0
KGU1 102146Z 11011KT 24/08 A303 RMK A01 T02360081  RH  037%=      5-min Rain = 0
KGU1 102147Z 11008G13KT 24/08 A303 RMK A01 T02350081  RH  038%=      5-min Rain = 0
KGU1 102148Z 11010KT 24/08 A303 RMK A01 T02350080  RH  038%=      5-min Rain = 0
KGU1 102149Z 09007KT 24/08 A303 RMK A01 T02350080  RH  037%=      5-min Rain = 0
KGU1 102150Z 10010G15KT 24/08 A303 RMK A01 T02350082  RH  038%=      5-min Rain = 0
KGU1 102151Z 10008KT 24/08 A303 RMK A01 T02350081  RH  038%=      5-min Rain = 0
KGU1 102152Z 09009KT 23/08 A303 RMK A01 T02340082  RH  038%=      5-min Rain = 0
KGU1 102153Z 10009KT 23/08 A303 RMK A01 T02330083  RH  039%=      5-min Rain = 0
KGU1 102154Z 11007KT 23/08 A303 RMK A01 T02330083  RH  039%=      5-min Rain = 0
KGU1 102155Z 08010G15KT 23/09 A303 RMK A01 T02340085  RH  039%=      5-min Rain = 0
KGU1 102156Z 08011KT 24/08 A303 RMK A01 T02350084  RH  039%=      5-min Rain = 0
KGU1 102157Z 05010KT 24/09 A303 RMK A01 T02360085  RH  039%=      5-min Rain = 0
KGU1 102158Z 06009KT 24/08 A303 RMK A01 T02380084  RH  038%=      5-min Rain = 0
KGU1 102159Z 05011KT 24/08 A303 RMK A01 T02390082  RH  037%=      5-min Rain = 0
KGU1 102200Z 05011KT 24/09 A303 RMK A01 T02390085  RH  038%=      5-min Rain = 0
KGU1 102201Z 04010KT 24/08 A303 RMK A01 T02380082  RH  037%=      5-min Rain = 0
KGU1 102202Z 05008KT 24/08 A303 RMK A01 T02370084  RH  038%=      5-min Rain = 0
KGU1 102203Z 08008KT 24/08 A303 RMK A01 T02380084  RH  038%=      5-min Rain = 0
KGU1 102204Z 06008KT 24/08 A303 RMK A01 T02390083  RH  038%=      5-min Rain = 0
KGU1 102205Z 07008KT 24/08 A303 RMK A01 T02400083  RH  037%=      5-min Rain = 0
KGU1 102206Z 08007KT 24/09 A303 RMK A01 T02410085  RH  038%=      5-min Rain = 0
KGU1 102207Z 09008KT 24/08 A303 RMK A01 T02430081  RH  036%=      5-min Rain = 0
KGU1 102208Z 09010KT 25/08 A303 RMK A01 T02450081  RH  036%=      5-min Rain = 0
KGU1 102209Z 09011KT 24/08 A303 RMK A01 T02440077  RH  035%=      5-min Rain = 0
KGU1 102210Z 10010KT 24/08 A303 RMK A01 T02420079  RH  036%=      5-min Rain = 0
KGU1 102211Z 09009KT 24/08 A303 RMK A01 T02430080  RH  036%=      5-min Rain = 0
KGU1 102212Z 10007KT 25/08 A303 RMK A01 T02450079  RH  035%=      5-min Rain = 0
KGU1 102213Z 09012KT 25/08 A303 RMK A01 T02450078  RH  035%=      5-min Rain = 0
KGU1 102214Z 09011KT 25/08 A303 RMK A01 T02450076  RH  035%=      5-min Rain = 0
KGU1 102215Z 09012KT 24/08 A303 RMK A01 T02440077  RH  035%=      5-min Rain = 0
KGU1 102216Z 10011KT 24/08 A303 RMK A01 T02430078  RH  035%=      5-min Rain = 0
KGU1 102217Z 09010KT 24/08 A303 RMK A01 T02430079  RH  035%=      5-min Rain = 0
KGU1 102218Z 08010KT 25/08 A303 RMK A01 T02450078  RH  035%=      5-min Rain = 0
KGU1 102219Z 08009KT 25/08 A303 RMK A01 T02450077  RH  035%=      5-min Rain = 0
KGU1 102220Z 06010KT 25/08 A303 RMK A01 T02450079  RH  035%=      5-min Rain = 0
KGU1 102221Z 08010KT 24/08 A303 RMK A01 T02440076  RH  035%=      5-min Rain = 0
KGU1 102222Z 06010KT 24/08 A303 RMK A01 T02430077  RH  035%=      5-min Rain = 0
KGU1 102223Z 08008KT 24/08 A303 RMK A01 T02420079  RH  036%=      5-min Rain = 0
KGU1 102224Z 10011KT 24/08 A303 RMK A01 T02430076  RH  035%=      5-min Rain = 0
KGU1 102225Z 08008KT 24/08 A303 RMK A01 T02420076  RH  035%=      5-min Rain = 0
KGU1 102226Z 08007KT 24/08 A303 RMK A01 T02410079  RH  036%=      5-min Rain = 0
KGU1 102227Z 06008KT 24/08 A303 RMK A01 T02410076  RH  035%=      5-min Rain = 0
KGU1 102228Z 08011G17KT 24/08 A303 RMK A01 T02410078  RH  036%=      5-min Rain = 0
KGU1 102229Z 11007KT 24/08 A303 RMK A01 T02430081  RH  036%=      5-min Rain = 0
KGU1 102230Z 08009KT 25/08 A303 RMK A01 T02450077  RH  035%=      5-min Rain = 0
KGU1 102231Z 08013KT 25/08 A303 RMK A01 T02450076  RH  034%=      5-min Rain = 0
KGU1 102232Z 09013KT 24/08 A303 RMK A01 T02430077  RH  035%=      5-min Rain = 0
KGU1 102233Z 08009G14KT 24/08 A303 RMK A01 T02420078  RH  035%=      5-min Rain = 0
KGU1 102234Z 08007KT 24/08 A3031 RMK A01 T02430079  RH  036%=      5-min Rain = 0
KGU1 102235Z 07009KT 24/08 A3031 RMK A01 T02440078  RH  035%=      5-min Rain = 0
KGU1 102236Z 06010KT 24/08 A3031 RMK A01 T02430077  RH  035%=      5-min Rain = 0
KGU1 102237Z 06008KT 24/08 A303 RMK A01 T02420080  RH  036%=      5-min Rain = 0
KGU1 102238Z 07011KT 24/08 A303 RMK A01 T02430079  RH  036%=      5-min Rain = 0
KGU1 102239Z 07009KT 24/08 A303 RMK A01 T02430077  RH  035%=      5-min Rain = 0
KGU1 102240Z 08008KT 24/08 A303 RMK A01 T02420079  RH  036%=      5-min Rain = 0
KGU1 102241Z 05007KT 24/08 A3031 RMK A01 T02430080  RH  036%=      5-min Rain = 0
KGU1 102242Z 04009KT 24/08 A3031 RMK A01 T02430079  RH  036%=      5-min Rain = 0
KGU1 102243Z 05009KT 24/08 A3031 RMK A01 T02430080  RH  036%=      5-min Rain = 0
KGU1 102244Z 07010KT 24/08 A3031 RMK A01 T02440078  RH  035%=      5-min Rain = 0
KGU1 102245Z 07009KT 24/08 A303 RMK A01 T02420077  RH  035%=      5-min Rain = 0
KGU1 102246Z 07007KT 24/08 A303 RMK A01 T02420080  RH  036%=      5-min Rain = 0
KGU1 102247Z 09007KT 24/08 A303 RMK A01 T02430079  RH  036%=      5-min Rain = 0
KGU1 102248Z 11010KT 24/08 A303 RMK A01 T02430075  RH  035%=      5-min Rain = 0
KGU1 102249Z 09010KT 24/08 A303 RMK A01 T02430076  RH  035%=      5-min Rain = 0
KGU1 102250Z 08011KT 24/08 A303 RMK A01 T02410075  RH  035%=      5-min Rain = 0
KGU1 102251Z 08008KT 24/08 A303 RMK A01 T02400076  RH  036%=      5-min Rain = 0
KGU1 102252Z 08008KT 24/08 A303 RMK A01 T02400075  RH  035%=      5-min Rain = 0
KGU1 102253Z 09009KT 24/07 A303 RMK A01 T02400074  RH  035%=      5-min Rain = 0
KGU1 102254Z 08010KT 24/07 A303 RMK A01 T02390074  RH  035%=      5-min Rain = 0
KGU1 102255Z 09010KT 24/08 A303 RMK A01 T02390075  RH  035%=      5-min Rain = 0
KGU1 102256Z 09011KT 24/07 A303 RMK A01 T02400074  RH  035%=      5-min Rain = 0
KGU1 102257Z 10008KT 24/07 A303 RMK A01 T02390074  RH  035%=      5-min Rain = 0
KGU1 102258Z 09010KT 24/07 A303 RMK A01 T02380074  RH  035%=      5-min Rain = 0
KGU1 102259Z 08008KT 24/07 A303 RMK A01 T02370074  RH  036%=      5-min Rain = 0
KGU1 102300Z 08007KT 24/07 A303 RMK A01 T02380074  RH  036%=      5-min Rain = 0
KGU1 102301Z 08007KT 24/07 A303 RMK A01 T02380074  RH  036%=      5-min Rain = 0
KGU1 102302Z 07007KT 24/08 A303 RMK A01 T02380077  RH  036%=      5-min Rain = 0
KGU1 102303Z 05010KT 24/08 A303 RMK A01 T02390075  RH  035%=      5-min Rain = 0
KGU1 102304Z 06008KT 24/08 A303 RMK A01 T02400076  RH  036%=      5-min Rain = 0
KGU1 102305Z 08011KT 24/08 A303 RMK A01 T02410075  RH  035%=      5-min Rain = 0
KGU1 102306Z 07008KT 24/07 A303 RMK A01 T02400074  RH  035%=      5-min Rain = 0
KGU1 102307Z 05006KT 24/08 A3031 RMK A01 T02400076  RH  035%=      5-min Rain = 0
KGU1 102308Z 05008KT 24/08 A3031 RMK A01 T02400077  RH  036%=      5-min Rain = 0
KGU1 102309Z 06009KT 24/07 A3031 RMK A01 T02400074  RH  035%=      5-min Rain = 0
KGU1 102310Z 06007KT 24/08 A3031 RMK A01 T02390077  RH  036%=      5-min Rain = 0
KGU1 102311Z 07007KT 24/08 A303 RMK A01 T02400076  RH  036%=      5-min Rain = 0
KGU1 102312Z 06006KT 24/08 A303 RMK A01 T02400076  RH  035%=      5-min Rain = 0
KGU1 102313Z 05008KT 24/08 A303 RMK A01 T02400075  RH  035%=      5-min Rain = 0
KGU1 102314Z 05009KT 24/08 A3031 RMK A01 T02400076  RH  035%=      5-min Rain = 0
KGU1 102315Z 05007KT 24/08 A3031 RMK A01 T02400077  RH  036%=      5-min Rain = 0
KGU1 102316Z 05006KT 24/08 A303 RMK A01 T02410077  RH  035%=      5-min Rain = 0
KGU1 102317Z 07006KT 24/08 A303 RMK A01 T02420076  RH  035%=      5-min Rain = 0
KGU1 102318Z 07004KT 24/08 A303 RMK A01 T02430078  RH  035%=      5-min Rain = 0
KGU1 102319Z 11007KT 24/07 A303 RMK A01 T02430073  RH  034%=      5-min Rain = 0
KGU1 102320Z 08007KT 24/08 A303 RMK A01 T02420075  RH  035%=      5-min Rain = 0
KGU1 102321Z 09009KT 24/07 A303 RMK A01 T02420072  RH  034%=      5-min Rain = 0
KGU1 102322Z 07008KT 24/08 A303 RMK A01 T02420075  RH  035%=      5-min Rain = 0
KGU1 102323Z 06010KT 24/07 A303 RMK A01 T02420073  RH  034%=      5-min Rain = 0
KGU1 102324Z 05011KT 24/07 A3031 RMK A01 T02410072  RH  034%=      5-min Rain = 0
KGU1 102325Z 05010KT 24/07 A3031 RMK A01 T02390072  RH  035%=      5-min Rain = 0
KGU1 102326Z 05009KT 24/07 A3031 RMK A01 T02380072  RH  035%=      5-min Rain = 0
KGU1 102327Z 04009KT 24/07 A303 RMK A01 T02380073  RH  035%=      5-min Rain = 0
KGU1 102328Z 06009KT 24/07 A303 RMK A01 T02380073  RH  035%=      5-min Rain = 0
KGU1 102329Z 07006KT 24/07 A303 RMK A01 T02370074  RH  035%=      5-min Rain = 0
KGU1 102330Z 10008KT 24/08 A303 RMK A01 T02390075  RH  035%=      5-min Rain = 0
KGU1 102331Z 10011KT 24/07 A303 RMK A01 T02400070  RH  034%=      5-min Rain = 0
KGU1 102332Z 08010KT 24/07 A303 RMK A01 T02380072  RH  035%=      5-min Rain = 0
KGU1 102333Z 06010KT 24/07 A303 RMK A01 T02380072  RH  035%=      5-min Rain = 0
KGU1 102334Z 06010KT 24/07 A303 RMK A01 T02380073  RH  035%=      5-min Rain = 0
KGU1 102335Z 06010KT 24/07 A303 RMK A01 T02380071  RH  035%=      5-min Rain = 0
KGU1 102336Z 06006KT 24/07 A303 RMK A01 T02370072  RH  035%=      5-min Rain = 0
KGU1 102337Z 06010KT 24/07 A303 RMK A01 T02370072  RH  035%=      5-min Rain = 0
KGU1 102338Z 05010KT 24/07 A303 RMK A01 T02360071  RH  035%=      5-min Rain = 0
KGU1 102339Z 06008KT 24/07 A303 RMK A01 T02350072  RH  036%=      5-min Rain = 0
KGU1 102340Z 06006KT 24/07 A303 RMK A01 T02350073  RH  036%=      5-min Rain = 0
KGU1 102341Z 05007KT 24/07 A303 RMK A01 T02360074  RH  036%=      5-min Rain = 0
KGU1 102342Z 06007KT 24/07 A303 RMK A01 T02370074  RH  036%=      5-min Rain = 0
KGU1 102343Z 07009KT 24/07 A303 RMK A01 T02380072  RH  035%=      5-min Rain = 0
KGU1 102344Z 09010KT 24/07 A303 RMK A01 T02380073  RH  035%=      5-min Rain = 0
KGU1 102345Z 09012KT 24/07 A303 RMK A01 T02370071  RH  035%=      5-min Rain = 0
KGU1 102346Z 09009KT 24/07 A303 RMK A01 T02370072  RH  035%=      5-min Rain = 0
KGU1 102347Z 08009KT 24/07 A303 RMK A01 T02370072  RH  035%=      5-min Rain = 0
KGU1 102348Z 08011KT 24/07 A303 RMK A01 T02370071  RH  035%=      5-min Rain = 0
KGU1 102349Z 08009KT 24/07 A303 RMK A01 T02360071  RH  035%=      5-min Rain = 0
KGU1 102350Z 07007KT 24/07 A303 RMK A01 T02360072  RH  035%=      5-min Rain = 0
KGU1 102351Z 07008KT 24/07 A303 RMK A01 T02360070  RH  035%=      5-min Rain = 0
KGU1 102352Z 08010KT 24/07 A303 RMK A01 T02350070  RH  035%=      5-min Rain = 0
KGU1 102353Z 07008KT 24/07 A303 RMK A01 T02350070  RH  035%=      5-min Rain = 0
KGU1 102354Z 07008KT 23/07 A303 RMK A01 T02340071  RH  036%=      5-min Rain = 0
KGU1 102355Z 08007KT 23/07 A303 RMK A01 T02340071  RH  036%=      5-min Rain = 0
KGU1 102356Z 06009KT 23/07 A303 RMK A01 T02340071  RH  035%=      5-min Rain = 0
KGU1 102357Z 06009KT 23/07 A303 RMK A01 T02340070  RH  035%=      5-min Rain = 0
KGU1 102358Z 06009KT 23/07 A303 RMK A01 T02340070  RH  035%=      5-min Rain = 0
KGU1 102359Z 05009KT 23/07 A303 RMK A01 T02330069  RH  035%=      5-min Rain = 0
KGU1 110000Z 06008KT 23/07 A303 RMK A01 T02320069  RH  036%=      5-min Rain = 0
KGU1 110001Z 06007KT 23/07 A303 RMK A01 T02320071  RH  036%=      5-min Rain = 0
KGU1 110002Z 06006KT 23/07 A303 RMK A01 T02330073  RH  036%=      5-min Rain = 0
KGU1 110003Z 08007KT 23/07 A303 RMK A01 T02330070  RH  036%=      5-min Rain = 0
KGU1 110004Z 07008KT 23/07 A303 RMK A01 T02330071  RH  036%=      5-min Rain = 0
KGU1 110005Z 08007KT 23/07 A303 RMK A01 T02330072  RH  036%=      5-min Rain = 0
KGU1 110006Z 07005KT 23/07 A303 RMK A01 T02330073  RH  036%=      5-min Rain = 0
KGU1 110007Z 07010KT 23/07 A303 RMK A01 T02330072  RH  036%=      5-min Rain = 0
KGU1 110008Z 06011KT 23/07 A303 RMK A01 T02330068  RH  035%=      5-min Rain = 0
KGU1 110009Z 06009KT 23/07 A303 RMK A01 T02310070  RH  036%=      5-min Rain = 0
KGU1 110010Z 07007KT 23/07 A303 RMK A01 T02320071  RH  036%=      5-min Rain = 0
KGU1 110011Z 07007KT 23/07 A303 RMK A01 T02320072  RH  036%=      5-min Rain = 0
KGU1 110012Z 09007KT 23/07 A303 RMK A01 T02330071  RH  036%=      5-min Rain = 0
KGU1 110013Z 08008KT 23/07 A303 RMK A01 T02330071  RH  036%=      5-min Rain = 0
KGU1 110014Z 08009KT 23/07 A303 RMK A01 T02330070  RH  036%=      5-min Rain = 0
KGU1 110015Z 08009KT 23/07 A303 RMK A01 T02320069  RH  036%=      5-min Rain = 0
KGU1 110016Z 07010KT 23/07 A303 RMK A01 T02310069  RH  036%=      5-min Rain = 0
KGU1 110017Z 07009KT 23/07 A303 RMK A01 T02300069  RH  036%=      5-min Rain = 0
KGU1 110018Z 08010KT 23/07 A303 RMK A01 T02280069  RH  036%=      5-min Rain = 0
KGU1 110019Z 07009KT 23/07 A303 RMK A01 T02270069  RH  037%=      5-min Rain = 0
KGU1 110020Z 07007KT 23/07 A303 RMK A01 T02260069  RH  037%=      5-min Rain = 0
KGU1 110021Z 07007KT 23/07 A303 RMK A01 T02250069  RH  037%=      5-min Rain = 0
KGU1 110022Z 07006KT 22/07 A303 RMK A01 T02240070  RH  037%=      5-min Rain = 0
KGU1 110023Z 07011KT 22/07 A303 RMK A01 T02230068  RH  037%=      5-min Rain = 0
KGU1 110024Z 06009KT 22/07 A303 RMK A01 T02220068  RH  037%=      5-min Rain = 0
KGU1 110025Z 07010KT 22/07 A303 RMK A01 T02220068  RH  037%=      5-min Rain = 0
KGU1 110026Z 07009KT 22/07 A303 RMK A01 T02220068  RH  037%=      5-min Rain = 0
KGU1 110027Z 08007KT 22/07 A303 RMK A01 T02210069  RH  038%=      5-min Rain = 0
KGU1 110028Z 08007KT 22/07 A303 RMK A01 T02210069  RH  038%=      5-min Rain = 0
KGU1 110029Z 08007KT 22/07 A303 RMK A01 T02210068  RH  038%=      5-min Rain = 0
KGU1 110030Z 08010KT 22/07 A303 RMK A01 T02210067  RH  037%=      5-min Rain = 0
KGU1 110031Z 08008KT 22/07 A303 RMK A01 T02200067  RH  037%=      5-min Rain = 0
KGU1 110032Z 08007KT 22/07 A303 RMK A01 T02200068  RH  038%=      5-min Rain = 0
KGU1 110033Z 08007KT 22/07 A303 RMK A01 T02200068  RH  038%=      5-min Rain = 0
KGU1 110034Z 07009KT 22/07 A303 RMK A01 T02200069  RH  038%=      5-min Rain = 0
KGU1 110035Z 07010KT 22/07 A303 RMK A01 T02190069  RH  038%=      5-min Rain = 0
KGU1 110036Z 07009KT 22/07 A303 RMK A01 T02190069  RH  039%=      5-min Rain = 0
KGU1 110037Z 07007KT 22/07 A303 RMK A01 T02190070  RH  039%=      5-min Rain = 0
KGU1 110038Z 07007KT 22/07 A303 RMK A01 T02180071  RH  039%=      5-min Rain = 0
KGU1 110039Z 07009KT 22/07 A303 RMK A01 T02180070  RH  039%=      5-min Rain = 0
KGU1 110040Z 07007KT 22/07 A303 RMK A01 T02170070  RH  039%=      5-min Rain = 0
KGU1 110041Z 07009KT 22/07 A303 RMK A01 T02170070  RH  039%=      5-min Rain = 0
KGU1 110042Z 07010KT 22/07 A303 RMK A01 T02170069  RH  039%=      5-min Rain = 0
KGU1 110043Z 08009KT 22/07 A303 RMK A01 T02170069  RH  039%=      5-min Rain = 0
KGU1 110044Z 08009KT 22/07 A303 RMK A01 T02170069  RH  039%=      5-min Rain = 0
KGU1 110045Z 08007KT 22/07 A303 RMK A01 T02170069  RH  039%=      5-min Rain = 0
KGU1 110046Z 07008KT 22/07 A303 RMK A01 T02170070  RH  039%=      5-min Rain = 0
KGU1 110047Z 07009KT 22/07 A3031 RMK A01 T02160070  RH  039%=      5-min Rain = 0
KGU1 110048Z 07007KT 22/07 A3031 RMK A01 T02160070  RH  039%=      5-min Rain = 0
KGU1 110049Z 07007KT 22/07 A3031 RMK A01 T02160070  RH  039%=      5-min Rain = 0
KGU1 110050Z 07006KT 22/07 A3031 RMK A01 T02150071  RH  040%=      5-min Rain = 0
KGU1 110051Z 07005KT 22/07 A3031 RMK A01 T02150071  RH  040%=      5-min Rain = 0
KGU1 110052Z 07006KT 21/07 A3031 RMK A01 T02140071  RH  040%=      5-min Rain = 0
KGU1 110053Z 08006KT 21/07 A3031 RMK A01 T02130071  RH  040%=      5-min Rain = 0
KGU1 110054Z 08007KT 21/07 A3031 RMK A01 T02130070  RH  040%=      5-min Rain = 0
KGU1 110055Z 08006KT 21/07 A3031 RMK A01 T02130069  RH  040%=      5-min Rain = 0
KGU1 110056Z 08007KT 21/07 A3031 RMK A01 T02120068  RH  040%=      5-min Rain = 0
KGU1 110057Z 08007KT 21/07 A303 RMK A01 T02120068  RH  040%=      5-min Rain = 0
KGU1 110058Z 08007KT 21/07 A3031 RMK A01 T02120068  RH  040%=      5-min Rain = 0
KGU1 110059Z 08008KT 21/07 A303 RMK A01 T02120068  RH  040%=      5-min Rain = 0
KGU1 110100Z 08007KT 21/07 A3031 RMK A01 T02120068  RH  040%=      5-min Rain = 0
KGU1 110101Z 08006KT 21/07 A3031 RMK A01 T02120068  RH  040%=      5-min Rain = 0
KGU1 110102Z 07006KT 21/07 A3031 RMK A01 T02120068  RH  040%=      5-min Rain = 0
KGU1 110103Z 08005KT 21/07 A3031 RMK A01 T02110068  RH  040%=      5-min Rain = 0
KGU1 110104Z 08006KT 21/07 A3031 RMK A01 T02100068  RH  040%=      5-min Rain = 0
KGU1 110105Z 07006KT 21/07 A3031 RMK A01 T02100068  RH  040%=      5-min Rain = 0
KGU1 110106Z 07006KT 21/07 A3031 RMK A01 T02090068  RH  040%=      5-min Rain = 0
KGU1 110107Z 07006KT 21/07 A3031 RMK A01 T02090068  RH  041%=      5-min Rain = 0
KGU1 110108Z 07005KT 21/07 A3031 RMK A01 T02080068  RH  041%=      5-min Rain = 0
KGU1 110109Z 07005KT 21/07 A3031 RMK A01 T02080068  RH  041%=      5-min Rain = 0
KGU1 110110Z 07006KT 21/07 A3031 RMK A01 T02070067  RH  041%=      5-min Rain = 0
KGU1 110111Z 07005KT 21/07 A3031 RMK A01 T02070067  RH  041%=      5-min Rain = 0
KGU1 110112Z 07005KT 21/07 A3031 RMK A01 T02060067  RH  041%=      5-min Rain = 0
KGU1 110113Z 07005KT 21/07 A3031 RMK A01 T02050068  RH  041%=      5-min Rain = 0
KGU1 110114Z 07005KT 21/07 A3031 RMK A01 T02050067  RH  041%=      5-min Rain = 0
KGU1 110115Z 07004KT 20/07 A3031 RMK A01 T02040067  RH  042%=      5-min Rain = 0
KGU1 110116Z 07005KT 20/07 A3031 RMK A01 T02040067  RH  042%=      5-min Rain = 0
KGU1 110117Z 07004KT 20/07 A3031 RMK A01 T02030067  RH  042%=      5-min Rain = 0
KGU1 110118Z 06005KT 20/07 A3031 RMK A01 T02030067  RH  042%=      5-min Rain = 0
KGU1 110119Z 06004KT 20/07 A3031 RMK A01 T02020068  RH  042%=      5-min Rain = 0
KGU1 110120Z 06004KT 20/07 A3031 RMK A01 T02020068  RH  043%=      5-min Rain = 0
KGU1 110121Z 05004KT 20/07 A3031 RMK A01 T02000069  RH  043%=      5-min Rain = 0
KGU1 110122Z 05004KT 20/07 A3031 RMK A01 T01990069  RH  043%=      5-min Rain = 0
KGU1 110123Z 04003KT 20/07 A3031 RMK A01 T01980069  RH  044%=      5-min Rain = 0
KGU1 110124Z 04003KT 20/07 A3031 RMK A01 T01970070  RH  044%=      5-min Rain = 0
KGU1 110125Z 04003KT 20/07 A3031 RMK A01 T01960070  RH  045%=      5-min Rain = 0
KGU1 110126Z 03003KT 20/07 A3031 RMK A01 T01950071  RH  045%=      5-min Rain = 0
KGU1 110127Z 04004KT 19/07 A3031 RMK A01 T01940071  RH  045%=      5-min Rain = 0
KGU1 110128Z 03004KT 19/07 A3031 RMK A01 T01930071  RH  046%=      5-min Rain = 0
KGU1 110129Z 04004KT 19/07 A3031 RMK A01 T01920071  RH  046%=      5-min Rain = 0
KGU1 110130Z 03004KT 19/07 A3031 RMK A01 T01920070  RH  046%=      5-min Rain = 0
KGU1 110131Z 03004KT 19/07 A3031 RMK A01 T01910070  RH  046%=      5-min Rain = 0
KGU1 110132Z 03004KT 19/07 A3031 RMK A01 T01910070  RH  046%=      5-min Rain = 0
KGU1 110133Z 04004KT 19/07 A3031 RMK A01 T01900070  RH  046%=      5-min Rain = 0
KGU1 110134Z 03004KT 19/07 A3031 RMK A01 T01900070  RH  046%=      5-min Rain = 0
KGU1 110135Z 03004KT 19/07 A3031 RMK A01 T01900070  RH  046%=      5-min Rain = 0
KGU1 110136Z 03004KT 19/07 A3031 RMK A01 T01890070  RH  047%=      5-min Rain = 0
KGU1 110137Z 02004KT 19/07 A3031 RMK A01 T01890070  RH  047%=      5-min Rain = 0
KGU1 110138Z 02004KT 19/07 A3031 RMK A01 T01880071  RH  047%=      5-min Rain = 0
KGU1 110139Z 03004KT 19/07 A3031 RMK A01 T01880070  RH  047%=      5-min Rain = 0
KGU1 110140Z 03004KT 19/07 A3031 RMK A01 T01890070  RH  047%=      5-min Rain = 0
KGU1 110141Z 02004KT 19/07 A3031 RMK A01 T01890070  RH  047%=      5-min Rain = 0
KGU1 110142Z 03004KT 19/07 A3031 RMK A01 T01890070  RH  047%=      5-min Rain = 0
KGU1 110143Z 02004KT 19/07 A3031 RMK A01 T01890070  RH  047%=      5-min Rain = 0
KGU1 110144Z 02004KT 19/07 A3031 RMK A01 T01880070  RH  047%=      5-min Rain = 0
KGU1 110145Z 03004KT 19/07 A3031 RMK A01 T01890069  RH  046%=      5-min Rain = 0
KGU1 110146Z 02005KT 19/07 A3031 RMK A01 T01890069  RH  046%=      5-min Rain = 0
KGU1 110147Z 02005KT 19/07 A3031 RMK A01 T01890069  RH  046%=      5-min Rain = 0
KGU1 110148Z 02004KT 19/07 A3031 RMK A01 T01890069  RH  046%=      5-min Rain = 0
KGU1 110149Z 02005KT 19/07 A3031 RMK A01 T01900069  RH  046%=      5-min Rain = 0
KGU1 110150Z 02006KT 19/07 A3031 RMK A01 T01900069  RH  046%=      5-min Rain = 0
KGU1 110151Z 02005KT 19/07 A3031 RMK A01 T01900069  RH  046%=      5-min Rain = 0
KGU1 110152Z 02005KT 19/07 A3031 RMK A01 T01900068  RH  046%=      5-min Rain = 0
KGU1 110153Z 02004KT 19/07 A3031 RMK A01 T01900069  RH  046%=      5-min Rain = 0
KGU1 110154Z 02005KT 19/07 A3031 RMK A01 T01900069  RH  046%=      5-min Rain = 0
KGU1 110155Z 02006KT 19/07 A3032 RMK A01 T01900068  RH  046%=      5-min Rain = 0
KGU1 110156Z 03005KT 19/07 A3032 RMK A01 T01900068  RH  046%=      5-min Rain = 0
KGU1 110157Z 03005KT 19/07 A3032 RMK A01 T01900068  RH  046%=      5-min Rain = 0
KGU1 110158Z 02005KT 19/07 A3032 RMK A01 T01900068  RH  046%=      5-min Rain = 0
KGU1 110159Z 02005KT 19/07 A3032 RMK A01 T01900068  RH  046%=      5-min Rain = 0
KGU1 110200Z 03005KT 19/07 A3032 RMK A01 T01900068  RH  046%=      5-min Rain = 0
KGU1 110201Z 03005KT 19/07 A3032 RMK A01 T01900067  RH  046%=      5-min Rain = 0
KGU1 110202Z 03005KT 19/07 A3032 RMK A01 T01900067  RH  046%=      5-min Rain = 0
KGU1 110203Z 03004KT 19/07 A3032 RMK A01 T01890068  RH  046%=      5-min Rain = 0
KGU1 110204Z 02006KT 19/07 A3032 RMK A01 T01890067  RH  046%=      5-min Rain = 0
KGU1 110205Z 02006KT 19/07 A3032 RMK A01 T01890067  RH  046%=      5-min Rain = 0
KGU1 110206Z 03006KT 19/07 A3032 RMK A01 T01900067  RH  045%=      5-min Rain = 0
KGU1 110207Z 03006KT 19/07 A3032 RMK A01 T01900067  RH  045%=      5-min Rain = 0
KGU1 110208Z 03006KT 19/07 A3032 RMK A01 T01900067  RH  045%=      5-min Rain = 0
KGU1 110209Z 04005KT 19/07 A3032 RMK A01 T01900066  RH  045%=      5-min Rain = 0
KGU1 110210Z 03005KT 19/07 A3032 RMK A01 T01900067  RH  045%=      5-min Rain = 0
KGU1 110211Z 03005KT 19/07 A3032 RMK A01 T01900067  RH  045%=      5-min Rain = 0
KGU1 110212Z 03006KT 19/07 A3032 RMK A01 T01900067  RH  045%=      5-min Rain = 0
KGU1 110213Z 03006KT 19/07 A3032 RMK A01 T01900067  RH  045%=      5-min Rain = 0
KGU1 110214Z 03005KT 19/07 A3032 RMK A01 T01890067  RH  045%=      5-min Rain = 0
KGU1 110215Z 03006KT 19/07 A3032 RMK A01 T01900067  RH  045%=      5-min Rain = 0
KGU1 110216Z 03005KT 19/07 A3032 RMK A01 T01900066  RH  045%=      5-min Rain = 0
KGU1 110217Z 03005KT 19/07 A3032 RMK A01 T01900066  RH  045%=      5-min Rain = 0
KGU1 110218Z 03006KT 19/07 A3033 RMK A01 T01890067  RH  045%=      5-min Rain = 0
KGU1 110219Z 03006KT 19/07 A3033 RMK A01 T01890067  RH  045%=      5-min Rain = 0
KGU1 110220Z 03006KT 19/07 A3033 RMK A01 T01890067  RH  045%=      5-min Rain = 0
KGU1 110221Z 03005KT 19/07 A3033 RMK A01 T01890066  RH  045%=      5-min Rain = 0
KGU1 110222Z 03005KT 19/07 A3033 RMK A01 T01890067  RH  046%=      5-min Rain = 0
KGU1 110223Z 03006KT 19/07 A3033 RMK A01 T01890066  RH  046%=      5-min Rain = 0
KGU1 110224Z 03005KT 19/07 A3033 RMK A01 T01880067  RH  046%=      5-min Rain = 0
KGU1 110225Z 03006KT 19/07 A3033 RMK A01 T01880066  RH  046%=      5-min Rain = 0
KGU1 110226Z 02007KT 19/07 A3033 RMK A01 T01890066  RH  045%=      5-min Rain = 0
KGU1 110227Z 02007KT 19/07 A3033 RMK A01 T01900066  RH  045%=      5-min Rain = 0
KGU1 110228Z 03005KT 19/07 A3033 RMK A01 T01900066  RH  045%=      5-min Rain = 0
KGU1 110229Z 03006KT 19/07 A3033 RMK A01 T01900066  RH  045%=      5-min Rain = 0
KGU1 110230Z 03006KT 19/07 A3033 RMK A01 T01900066  RH  045%=      5-min Rain = 0
KGU1 110231Z 03006KT 19/07 A3033 RMK A01 T01900066  RH  045%=      5-min Rain = 0
KGU1 110232Z 03004KT 19/07 A3033 RMK A01 T01900066  RH  045%=      5-min Rain = 0
KGU1 110233Z 03006KT 19/07 A3033 RMK A01 T01900066  RH  045%=      5-min Rain = 0
KGU1 110234Z 03005KT 19/07 A3033 RMK A01 T01900066  RH  045%=      5-min Rain = 0
KGU1 110235Z 03006KT 19/07 A3033 RMK A01 T01900066  RH  045%=      5-min Rain = 0
KGU1 110236Z 02007KT 19/07 A3033 RMK A01 T01900066  RH  045%=      5-min Rain = 0
KGU1 110237Z 02006KT 19/07 A3033 RMK A01 T01900065  RH  045%=      5-min Rain = 0
KGU1 110238Z 02004KT 19/07 A3033 RMK A01 T01900066  RH  045%=      5-min Rain = 0
KGU1 110239Z 02004KT 19/07 A3033 RMK A01 T01900066  RH  045%=      5-min Rain = 0
KGU1 110240Z 02005KT 19/07 A3033 RMK A01 T01890066  RH  045%=      5-min Rain = 0
KGU1 110241Z 03007KT 19/07 A3033 RMK A01 T01890066  RH  045%=      5-min Rain = 0
KGU1 110242Z 02006KT 19/07 A3033 RMK A01 T01890066  RH  045%=      5-min Rain = 0
KGU1 110243Z 02006KT 19/07 A3033 RMK A01 T01890066  RH  045%=      5-min Rain = 0
KGU1 110244Z 02006KT 19/07 A3033 RMK A01 T01880066  RH  045%=      5-min Rain = 0
KGU1 110245Z 03005KT 19/07 A3033 RMK A01 T01880065  RH  045%=      5-min Rain = 0
KGU1 110246Z 02007KT 19/07 A3033 RMK A01 T01880065  RH  045%=      5-min Rain = 0
KGU1 110247Z 02006KT 19/07 A3033 RMK A01 T01890065  RH  045%=      5-min Rain = 0
KGU1 110248Z 03006KT 19/07 A3033 RMK A01 T01890066  RH  045%=      5-min Rain = 0
KGU1 110249Z 04006KT 19/07 A3033 RMK A01 T01880065  RH  045%=      5-min Rain = 0
KGU1 110250Z 02005KT 19/07 A3033 RMK A01 T01880065  RH  045%=      5-min Rain = 0
KGU1 110251Z 02005KT 19/07 A3034 RMK A01 T01880066  RH  045%=      5-min Rain = 0
KGU1 110252Z 02005KT 19/07 A3034 RMK A01 T01880066  RH  045%=      5-min Rain = 0
KGU1 110253Z 02007KT 19/07 A3034 RMK A01 T01880065  RH  045%=      5-min Rain = 0
KGU1 110254Z 02007KT 19/07 A3034 RMK A01 T01880065  RH  045%=      5-min Rain = 0
KGU1 110255Z 03006KT 19/07 A3034 RMK A01 T01890065  RH  045%=      5-min Rain = 0
KGU1 110256Z 02006KT 19/07 A3034 RMK A01 T01890065  RH  045%=      5-min Rain = 0
KGU1 110257Z 02005KT 19/07 A3034 RMK A01 T01890065  RH  045%=      5-min Rain = 0
KGU1 110258Z 04005KT 19/07 A3034 RMK A01 T01880065  RH  045%=      5-min Rain = 0
KGU1 110259Z 02005KT 19/07 A3034 RMK A01 T01880065  RH  045%=      5-min Rain = 0
KGU1 110300Z 02006KT 19/07 A3034 RMK A01 T01880065  RH  045%=      5-min Rain = 0
KGU1 110301Z 03005KT 19/07 A3034 RMK A01 T01870065  RH  045%=      5-min Rain = 0
KGU1 110302Z 04005KT 19/07 A3034 RMK A01 T01870065  RH  045%=      5-min Rain = 0
KGU1 110303Z 05004KT 19/07 A3034 RMK A01 T01870065  RH  045%=      5-min Rain = 0
KGU1 110304Z 02004KT 19/07 A3034 RMK A01 T01870065  RH  046%=      5-min Rain = 0
KGU1 110305Z 02006KT 19/07 A3034 RMK A01 T01860065  RH  046%=      5-min Rain = 0
KGU1 110306Z 02005KT 19/07 A3034 RMK A01 T01870065  RH  046%=      5-min Rain = 0
KGU1 110307Z 03004KT 19/07 A3034 RMK A01 T01870065  RH  045%=      5-min Rain = 0
KGU1 110308Z 03005KT 19/07 A3034 RMK A01 T01870065  RH  045%=      5-min Rain = 0
KGU1 110309Z 02005KT 19/07 A3034 RMK A01 T01860065  RH  046%=      5-min Rain = 0
KGU1 110310Z 02005KT 19/07 A3034 RMK A01 T01860065  RH  046%=      5-min Rain = 0
KGU1 110311Z 01004KT 19/07 A3034 RMK A01 T01860065  RH  046%=      5-min Rain = 0
KGU1 110312Z 02004KT 19/07 A3034 RMK A01 T01850065  RH  046%=      5-min Rain = 0
KGU1 110313Z 02006KT 19/07 A3034 RMK A01 T01860065  RH  046%=      5-min Rain = 0
KGU1 110314Z 03005KT 19/07 A3034 RMK A01 T01860065  RH  046%=      5-min Rain = 0
KGU1 110315Z 03005KT 19/07 A3034 RMK A01 T01870065  RH  045%=      5-min Rain = 0
KGU1 110316Z 02003KT 19/07 A3034 RMK A01 T01870065  RH  046%=      5-min Rain = 0
KGU1 110317Z 03004KT 19/07 A3034 RMK A01 T01860065  RH  046%=      5-min Rain = 0
KGU1 110318Z 02005KT 19/07 A3034 RMK A01 T01860066  RH  046%=      5-min Rain = 0
KGU1 110319Z 02005KT 19/07 A3034 RMK A01 T01860066  RH  046%=      5-min Rain = 0
KGU1 110320Z 03004KT 19/07 A3034 RMK A01 T01850066  RH  046%=      5-min Rain = 0
KGU1 110321Z 01006KT 19/07 A3034 RMK A01 T01850066  RH  046%=      5-min Rain = 0
KGU1 110322Z 01006KT 19/07 A3034 RMK A01 T01850066  RH  046%=      5-min Rain = 0
KGU1 110323Z 02006KT 19/07 A3034 RMK A01 T01850066  RH  046%=      5-min Rain = 0
KGU1 110324Z 02006KT 19/07 A3034 RMK A01 T01850065  RH  046%=      5-min Rain = 0
KGU1 110325Z 02007KT 19/07 A3034 RMK A01 T01860065  RH  046%=      5-min Rain = 0
KGU1 110326Z 01006KT 19/07 A3034 RMK A01 T01860065  RH  046%=      5-min Rain = 0
KGU1 110327Z 02007KT 19/07 A3034 RMK A01 T01860065  RH  046%=      5-min Rain = 0
KGU1 110328Z 02006KT 19/07 A3034 RMK A01 T01860065  RH  046%=      5-min Rain = 0
KGU1 110329Z 02004KT 19/07 A3034 RMK A01 T01860065  RH  046%=      5-min Rain = 0
KGU1 110330Z 02005KT 19/07 A3034 RMK A01 T01860066  RH  046%=      5-min Rain = 0
KGU1 110331Z 02005KT 19/07 A3034 RMK A01 T01850066  RH  046%=      5-min Rain = 0
KGU1 110332Z 02006KT 19/07 A3034 RMK A01 T01850066  RH  046%=      5-min Rain = 0
KGU1 110333Z 02005KT 19/07 A3034 RMK A01 T01850066  RH  047%=      5-min Rain = 0
KGU1 110334Z 01005KT 18/07 A3034 RMK A01 T01840066  RH  047%=      5-min Rain = 0
KGU1 110335Z 01006KT 18/07 A3034 RMK A01 T01840066  RH  047%=      5-min Rain = 0
KGU1 110336Z 03006KT 19/07 A3034 RMK A01 T01850065  RH  046%=      5-min Rain = 0
KGU1 110337Z 02005KT 19/07 A3034 RMK A01 T01850065  RH  046%=      5-min Rain = 0
KGU1 110338Z 03006KT 19/07 A3034 RMK A01 T01850065  RH  046%=      5-min Rain = 0
KGU1 110339Z 02004KT 19/07 A3035 RMK A01 T01860065  RH  046%=      5-min Rain = 0
KGU1 110340Z 02006KT 19/07 A3035 RMK A01 T01860065  RH  046%=      5-min Rain = 0
KGU1 110341Z 01005KT 19/07 A3035 RMK A01 T01860065  RH  046%=      5-min Rain = 0
KGU1 110342Z 02006KT 19/07 A3035 RMK A01 T01860066  RH  046%=      5-min Rain = 0
KGU1 110343Z 01006KT 19/07 A3035 RMK A01 T01850066  RH  046%=      5-min Rain = 0
KGU1 110344Z 01007KT 19/07 A3035 RMK A01 T01850065  RH  046%=      5-min Rain = 0
KGU1 110345Z 03006KT 19/07 A3035 RMK A01 T01860065  RH  046%=      5-min Rain = 0
KGU1 110346Z 03006KT 19/06 A3035 RMK A01 T01860064  RH  046%=      5-min Rain = 0
KGU1 110347Z 01006KT 19/07 A3035 RMK A01 T01870065  RH  046%=      5-min Rain = 0
KGU1 110348Z 02005KT 19/07 A3035 RMK A01 T01860065  RH  046%=      5-min Rain = 0
KGU1 110349Z 03005KT 19/07 A3035 RMK A01 T01860065  RH  046%=      5-min Rain = 0
KGU1 110350Z 02005KT 19/07 A3035 RMK A01 T01850065  RH  046%=      5-min Rain = 0
KGU1 110351Z 02005KT 19/07 A3035 RMK A01 T01860065  RH  046%=      5-min Rain = 0
KGU1 110352Z 02006KT 19/07 A3035 RMK A01 T01860065  RH  046%=      5-min Rain = 0
KGU1 110353Z 02005KT 19/07 A3035 RMK A01 T01860065  RH  046%=      5-min Rain = 0
KGU1 110354Z 02006KT 19/07 A3035 RMK A01 T01850065  RH  046%=      5-min Rain = 0
KGU1 110355Z 03006KT 19/07 A3035 RMK A01 T01850065  RH  046%=      5-min Rain = 0
KGU1 110356Z 02004KT 19/07 A3035 RMK A01 T01850065  RH  046%=      5-min Rain = 0
KGU1 110357Z 02006KT 19/06 A3035 RMK A01 T01850064  RH  046%=      5-min Rain = 0
KGU1 110358Z 02007KT 19/06 A3035 RMK A01 T01850064  RH  046%=      5-min Rain = 0
KGU1 110359Z 03005KT 19/06 A3035 RMK A01 T01860063  RH  045%=      5-min Rain = 0
KGU1 110400Z 01004KT 19/06 A3035 RMK A01 T01870064  RH  045%=      5-min Rain = 0
KGU1 110401Z 02005KT 19/06 A3035 RMK A01 T01870064  RH  045%=      5-min Rain = 0
KGU1 110402Z 02006KT 19/06 A3035 RMK A01 T01870064  RH  045%=      5-min Rain = 0
KGU1 110403Z 02007KT 19/06 A3035 RMK A01 T01860064  RH  046%=      5-min Rain = 0
KGU1 110404Z 03007KT 19/06 A3035 RMK A01 T01860064  RH  046%=      5-min Rain = 0
KGU1 110405Z 03005KT 19/06 A3035 RMK A01 T01860064  RH  046%=      5-min Rain = 0
KGU1 110406Z 02006KT 19/06 A3035 RMK A01 T01860063  RH  045%=      5-min Rain = 0
KGU1 110407Z 02006KT 19/06 A3035 RMK A01 T01860062  RH  045%=      5-min Rain = 0
KGU1 110408Z 03006KT 19/06 A3035 RMK A01 T01870063  RH  045%=      5-min Rain = 0
KGU1 110409Z 02005KT 19/06 A3035 RMK A01 T01870062  RH  045%=      5-min Rain = 0
KGU1 110410Z 01006KT 19/06 A3035 RMK A01 T01870063  RH  045%=      5-min Rain = 0
KGU1 110411Z 01007KT 19/06 A3035 RMK A01 T01870064  RH  045%=      5-min Rain = 0
KGU1 110412Z 00005KT 19/06 A3035 RMK A01 T01850064  RH  046%=      5-min Rain = 0
KGU1 110413Z 02006KT 19/06 A3035 RMK A01 T01850064  RH  046%=      5-min Rain = 0
KGU1 110414Z 01006KT 19/06 A3035 RMK A01 T01850064  RH  046%=      5-min Rain = 0
KGU1 110415Z 02006KT 18/06 A3035 RMK A01 T01840064  RH  046%=      5-min Rain = 0
KGU1 110416Z 01004KT 18/06 A3035 RMK A01 T01840064  RH  046%=      5-min Rain = 0
KGU1 110417Z 02004KT 18/06 A3035 RMK A01 T01840064  RH  046%=      5-min Rain = 0
KGU1 110418Z 03005KT 18/06 A3035 RMK A01 T01830064  RH  046%=      5-min Rain = 0
KGU1 110419Z 01006KT 18/06 A3035 RMK A01 T01830064  RH  046%=      5-min Rain = 0
KGU1 110420Z 01006KT 18/06 A3035 RMK A01 T01840063  RH  046%=      5-min Rain = 0
KGU1 110421Z 02006KT 18/06 A3035 RMK A01 T01840063  RH  046%=      5-min Rain = 0
KGU1 110422Z 01007KT 19/06 A3035 RMK A01 T01850062  RH  045%=      5-min Rain = 0
KGU1 110423Z 02006KT 19/06 A3035 RMK A01 T01860062  RH  045%=      5-min Rain = 0
KGU1 110424Z 02006KT 19/06 A3035 RMK A01 T01860063  RH  045%=      5-min Rain = 0
KGU1 110425Z 01005KT 19/06 A3035 RMK A01 T01850063  RH  046%=      5-min Rain = 0
KGU1 110426Z 02005KT 18/06 A3035 RMK A01 T01840063  RH  046%=      5-min Rain = 0
KGU1 110427Z 03005KT 18/06 A3035 RMK A01 T01830064  RH  046%=      5-min Rain = 0
KGU1 110428Z 03007KT 18/06 A3035 RMK A01 T01830063  RH  046%=      5-min Rain = 0
KGU1 110429Z 02006KT 18/06 A3035 RMK A01 T01830063  RH  046%=      5-min Rain = 0
KGU1 110430Z 03006KT 18/06 A3035 RMK A01 T01830063  RH  046%=      5-min Rain = 0
KGU1 110431Z 04006KT 18/06 A3035 RMK A01 T01830063  RH  046%=      5-min Rain = 0
KGU1 110432Z 03005KT 18/06 A3035 RMK A01 T01820063  RH  046%=      5-min Rain = 0
KGU1 110433Z 02006KT 18/06 A3035 RMK A01 T01810063  RH  047%=      5-min Rain = 0
KGU1 110434Z 03006KT 18/06 A3035 RMK A01 T01820063  RH  046%=      5-min Rain = 0
KGU1 110435Z 03005KT 18/06 A3035 RMK A01 T01810063  RH  047%=      5-min Rain = 0
KGU1 110436Z 04005KT 18/06 A3035 RMK A01 T01810063  RH  047%=      5-min Rain = 0
KGU1 110437Z 04005KT 18/06 A3035 RMK A01 T01790064  RH  047%=      5-min Rain = 0
KGU1 110438Z 03006KT 18/06 A3035 RMK A01 T01790063  RH  047%=      5-min Rain = 0
KGU1 110439Z 05005KT 18/06 A3035 RMK A01 T01790064  RH  047%=      5-min Rain = 0
KGU1 110440Z 04005KT 18/06 A3035 RMK A01 T01790063  RH  047%=      5-min Rain = 0
KGU1 110441Z 03005KT 18/06 A3035 RMK A01 T01780063  RH  048%=      5-min Rain = 0
KGU1 110442Z 03006KT 18/06 A3035 RMK A01 T01780063  RH  047%=      5-min Rain = 0
KGU1 110443Z 04007KT 18/06 A3035 RMK A01 T01780063  RH  047%=      5-min Rain = 0
KGU1 110444Z 03006KT 18/06 A3035 RMK A01 T01790063  RH  047%=      5-min Rain = 0
KGU1 110445Z 04007KT 18/06 A3035 RMK A01 T01790063  RH  047%=      5-min Rain = 0
KGU1 110446Z 04005KT 18/06 A3035 RMK A01 T01800063  RH  047%=      5-min Rain = 0
KGU1 110447Z 04005KT 18/06 A3035 RMK A01 T01800063  RH  047%=      5-min Rain = 0
KGU1 110448Z 04004KT 18/06 A3035 RMK A01 T01800063  RH  047%=      5-min Rain = 0
KGU1 110449Z 04003KT 18/06 A3035 RMK A01 T01800063  RH  047%=      5-min Rain = 0
KGU1 110450Z 05003KT 18/06 A3035 RMK A01 T01790063  RH  047%=      5-min Rain = 0
KGU1 110451Z 04004KT 18/06 A3035 RMK A01 T01780063  RH  047%=      5-min Rain = 0
KGU1 110452Z 04004KT 18/06 A3035 RMK A01 T01780063  RH  048%=      5-min Rain = 0
KGU1 110453Z 04004KT 18/06 A3035 RMK A01 T01780063  RH  048%=      5-min Rain = 0
KGU1 110454Z 04004KT 18/06 A3035 RMK A01 T01780063  RH  047%=      5-min Rain = 0
KGU1 110455Z 03003KT 18/06 A3035 RMK A01 T01780062  RH  047%=      5-min Rain = 0
KGU1 110456Z 03004KT 18/06 A3036 RMK A01 T01780062  RH  047%=      5-min Rain = 0
KGU1 110457Z 05004KT 18/06 A3036 RMK A01 T01780062  RH  047%=      5-min Rain = 0
KGU1 110458Z 02005KT 18/06 A3036 RMK A01 T01780063  RH  047%=      5-min Rain = 0
KGU1 110459Z 01004KT 18/06 A3036 RMK A01 T01770063  RH  048%=      5-min Rain = 0

Page generated in 0.1144 seconds.